<?xml version="1.0" encoding="utf-8"?>
<gpx xmlns:xsi="http://www.w3.org/2001/XMLSchema-instance" xmlns:xsd="http://www.w3.org/2001/XMLSchema" version="1.1" creator="Shapelink.com" xmlns="http://www.topografix.com/GPX/1/1" xmlns:gpxtpx="http://www.garmin.com/xmlschemas/TrackPointExtension/v1">
  <metadata>
    <name>Längdskidåkning 13.12 km, 2012-02-13</name>
    <desc></desc>
    <author><name>Dennis Rehn</name></author> 
    <time>2012-02-13T18:05:23Z</time>
  </metadata>
  <trk>
    <name>Längdskidåkning 13.12 km, 2012-02-13</name>
    <trkseg>
      <trkpt lat="59.990549867" lon="23.4074951056">
        <ele>24</ele>
        <time>2012-02-13T18:05:23Z</time>
      </trkpt>
      <trkpt lat="59.990553555" lon="23.4076795074">
        <ele>23.4</ele>
        <time>2012-02-13T18:05:27Z</time>
      </trkpt>
      <trkpt lat="59.9905747612" lon="23.4079913141">
        <ele>22</ele>
        <time>2012-02-13T18:05:33Z</time>
      </trkpt>
      <trkpt lat="59.9906491925" lon="23.4081204792">
        <ele>21.4</ele>
        <time>2012-02-13T18:05:36Z</time>
      </trkpt>
      <trkpt lat="59.9907124758" lon="23.4082647317">
        <ele>20.8</ele>
        <time>2012-02-13T18:05:38Z</time>
      </trkpt>
      <trkpt lat="59.9908613384" lon="23.4085348803">
        <ele>19.4</ele>
        <time>2012-02-13T18:05:42Z</time>
      </trkpt>
      <trkpt lat="59.9909024097" lon="23.4086023546">
        <ele>19</ele>
        <time>2012-02-13T18:05:43Z</time>
      </trkpt>
      <trkpt lat="59.9909817025" lon="23.4087199526">
        <ele>18.2</ele>
        <time>2012-02-13T18:05:45Z</time>
      </trkpt>
      <trkpt lat="59.9911272961" lon="23.4088612715">
        <ele>16.6</ele>
        <time>2012-02-13T18:05:49Z</time>
      </trkpt>
      <trkpt lat="59.9911699599" lon="23.4088890994">
        <ele>16.2</ele>
        <time>2012-02-13T18:05:50Z</time>
      </trkpt>
      <trkpt lat="59.9912476601" lon="23.4089491138">
        <ele>15.4</ele>
        <time>2012-02-13T18:05:52Z</time>
      </trkpt>
      <trkpt lat="59.9914009651" lon="23.4089387202">
        <ele>13.6</ele>
        <time>2012-02-13T18:05:56Z</time>
      </trkpt>
      <trkpt lat="59.9914844488" lon="23.408859176">
        <ele>12.4</ele>
        <time>2012-02-13T18:05:59Z</time>
      </trkpt>
      <trkpt lat="59.9915091754" lon="23.4088202002">
        <ele>11.8</ele>
        <time>2012-02-13T18:06:00Z</time>
      </trkpt>
      <trkpt lat="59.9916105964" lon="23.4086010973">
        <ele>9.6</ele>
        <time>2012-02-13T18:06:05Z</time>
      </trkpt>
      <trkpt lat="59.991619565" lon="23.4085602775">
        <ele>9.2</ele>
        <time>2012-02-13T18:06:06Z</time>
      </trkpt>
      <trkpt lat="59.9916530926" lon="23.4083734449">
        <ele>7</ele>
        <time>2012-02-13T18:06:10Z</time>
      </trkpt>
      <trkpt lat="59.9916428667" lon="23.4081326329">
        <ele>5.2</ele>
        <time>2012-02-13T18:06:14Z</time>
      </trkpt>
      <trkpt lat="59.9916075789" lon="23.4079160446">
        <ele>2.8</ele>
        <time>2012-02-13T18:06:19Z</time>
      </trkpt>
      <trkpt lat="59.9915687707" lon="23.4076721313">
        <ele>0.8</ele>
        <time>2012-02-13T18:06:25Z</time>
      </trkpt>
      <trkpt lat="59.9915359975" lon="23.4074423834">
        <ele>0</ele>
        <time>2012-02-13T18:06:31Z</time>
      </trkpt>
      <trkpt lat="59.9915178926" lon="23.40723468">
        <ele>0</ele>
        <time>2012-02-13T18:06:36Z</time>
      </trkpt>
      <trkpt lat="59.9914981951" lon="23.4070242943">
        <ele>0</ele>
        <time>2012-02-13T18:06:42Z</time>
      </trkpt>
      <trkpt lat="59.9914924116" lon="23.406863278">
        <ele>0</ele>
        <time>2012-02-13T18:06:47Z</time>
      </trkpt>
      <trkpt lat="59.991498279" lon="23.4067756871">
        <ele>0</ele>
        <time>2012-02-13T18:06:50Z</time>
      </trkpt>
      <trkpt lat="59.9914915734" lon="23.4067138287">
        <ele>0</ele>
        <time>2012-02-13T18:06:56Z</time>
      </trkpt>
      <trkpt lat="59.9915111871" lon="23.406644678">
        <ele>0</ele>
        <time>2012-02-13T18:07:01Z</time>
      </trkpt>
      <trkpt lat="59.9915338182" lon="23.4065699953">
        <ele>0.4</ele>
        <time>2012-02-13T18:07:06Z</time>
      </trkpt>
      <trkpt lat="59.9915761468" lon="23.4064271677">
        <ele>1.4</ele>
        <time>2012-02-13T18:07:11Z</time>
      </trkpt>
      <trkpt lat="59.9916146197" lon="23.4062787243">
        <ele>2.2</ele>
        <time>2012-02-13T18:07:16Z</time>
      </trkpt>
      <trkpt lat="59.9916509134" lon="23.4061046322">
        <ele>3.4</ele>
        <time>2012-02-13T18:07:21Z</time>
      </trkpt>
      <trkpt lat="59.9916857821" lon="23.4059314622">
        <ele>4.2</ele>
        <time>2012-02-13T18:07:27Z</time>
      </trkpt>
      <trkpt lat="59.9917170465" lon="23.405859294">
        <ele>4.8</ele>
        <time>2012-02-13T18:07:30Z</time>
      </trkpt>
      <trkpt lat="59.9918439485" lon="23.405745384">
        <ele>6</ele>
        <time>2012-02-13T18:07:37Z</time>
      </trkpt>
      <trkpt lat="59.9919419329" lon="23.4055831104">
        <ele>6.8</ele>
        <time>2012-02-13T18:07:43Z</time>
      </trkpt>
      <trkpt lat="59.9920051324" lon="23.4054061685">
        <ele>7.8</ele>
        <time>2012-02-13T18:07:48Z</time>
      </trkpt>
      <trkpt lat="59.9920137658" lon="23.4053629179">
        <ele>8</ele>
        <time>2012-02-13T18:07:49Z</time>
      </trkpt>
      <trkpt lat="59.9921193777" lon="23.405147084">
        <ele>8.6</ele>
        <time>2012-02-13T18:07:55Z</time>
      </trkpt>
      <trkpt lat="59.9921373988" lon="23.4051203457">
        <ele>8.6</ele>
        <time>2012-02-13T18:07:56Z</time>
      </trkpt>
      <trkpt lat="59.9922715931" lon="23.4049710641">
        <ele>9.6</ele>
        <time>2012-02-13T18:08:01Z</time>
      </trkpt>
      <trkpt lat="59.9924616945" lon="23.4049009076">
        <ele>10.4</ele>
        <time>2012-02-13T18:08:07Z</time>
      </trkpt>
      <trkpt lat="59.9925776162" lon="23.4049460022">
        <ele>10.8</ele>
        <time>2012-02-13T18:08:11Z</time>
      </trkpt>
      <trkpt lat="59.9927553963" lon="23.4049852295">
        <ele>11</ele>
        <time>2012-02-13T18:08:15Z</time>
      </trkpt>
      <trkpt lat="59.9929310809" lon="23.4049348542">
        <ele>11</ele>
        <time>2012-02-13T18:08:18Z</time>
      </trkpt>
      <trkpt lat="59.9931857231" lon="23.4046890131">
        <ele>10.8</ele>
        <time>2012-02-13T18:08:22Z</time>
      </trkpt>
      <trkpt lat="59.9933401177" lon="23.4041058005">
        <ele>10.2</ele>
        <time>2012-02-13T18:08:27Z</time>
      </trkpt>
      <trkpt lat="59.993372388" lon="23.4037846899">
        <ele>9.8</ele>
        <time>2012-02-13T18:08:31Z</time>
      </trkpt>
      <trkpt lat="59.9934209192" lon="23.4033979491">
        <ele>8.6</ele>
        <time>2012-02-13T18:08:37Z</time>
      </trkpt>
      <trkpt lat="59.9934323186" lon="23.4033454784">
        <ele>8.4</ele>
        <time>2012-02-13T18:08:38Z</time>
      </trkpt>
      <trkpt lat="59.9934940093" lon="23.4030589012">
        <ele>8</ele>
        <time>2012-02-13T18:08:43Z</time>
      </trkpt>
      <trkpt lat="59.9935417862" lon="23.4027806221">
        <ele>7.6</ele>
        <time>2012-02-13T18:08:48Z</time>
      </trkpt>
      <trkpt lat="59.9935961847" lon="23.4025918617">
        <ele>7.6</ele>
        <time>2012-02-13T18:08:52Z</time>
      </trkpt>
      <trkpt lat="59.9936549418" lon="23.4024076276">
        <ele>7.4</ele>
        <time>2012-02-13T18:08:56Z</time>
      </trkpt>
      <trkpt lat="59.9937121064" lon="23.4021832441">
        <ele>7.4</ele>
        <time>2012-02-13T18:09:01Z</time>
      </trkpt>
      <trkpt lat="59.9937717855" lon="23.4019554241">
        <ele>7.4</ele>
        <time>2012-02-13T18:09:06Z</time>
      </trkpt>
      <trkpt lat="59.9938342307" lon="23.4017670828">
        <ele>7.4</ele>
        <time>2012-02-13T18:09:11Z</time>
      </trkpt>
      <trkpt lat="59.993916038" lon="23.4015917334">
        <ele>7.4</ele>
        <time>2012-02-13T18:09:16Z</time>
      </trkpt>
      <trkpt lat="59.994053585" lon="23.4014643286">
        <ele>7.2</ele>
        <time>2012-02-13T18:09:21Z</time>
      </trkpt>
      <trkpt lat="59.9942296887" lon="23.4012805135">
        <ele>7.2</ele>
        <time>2012-02-13T18:09:26Z</time>
      </trkpt>
      <trkpt lat="59.9944074688" lon="23.4011111991">
        <ele>7.2</ele>
        <time>2012-02-13T18:09:31Z</time>
      </trkpt>
      <trkpt lat="59.9944735182" lon="23.4010609077">
        <ele>7.2</ele>
        <time>2012-02-13T18:09:33Z</time>
      </trkpt>
      <trkpt lat="59.9946407371" lon="23.4009061778">
        <ele>7.2</ele>
        <time>2012-02-13T18:09:40Z</time>
      </trkpt>
      <trkpt lat="59.9947510429" lon="23.4007729056">
        <ele>7.2</ele>
        <time>2012-02-13T18:09:45Z</time>
      </trkpt>
      <trkpt lat="59.9947662979" lon="23.4007461674">
        <ele>7.2</ele>
        <time>2012-02-13T18:09:46Z</time>
      </trkpt>
      <trkpt lat="59.9948647853" lon="23.4006052676">
        <ele>7.2</ele>
        <time>2012-02-13T18:09:52Z</time>
      </trkpt>
      <trkpt lat="59.9948862429" lon="23.4005637772">
        <ele>7.2</ele>
        <time>2012-02-13T18:09:54Z</time>
      </trkpt>
      <trkpt lat="59.9949810422" lon="23.4003631983">
        <ele>8</ele>
        <time>2012-02-13T18:10:01Z</time>
      </trkpt>
      <trkpt lat="59.9950562279" lon="23.400112831">
        <ele>9.2</ele>
        <time>2012-02-13T18:10:09Z</time>
      </trkpt>
      <trkpt lat="59.995100149" lon="23.3998913812">
        <ele>10.4</ele>
        <time>2012-02-13T18:10:15Z</time>
      </trkpt>
      <trkpt lat="59.9951038371" lon="23.3996839292">
        <ele>11.6</ele>
        <time>2012-02-13T18:10:20Z</time>
      </trkpt>
      <trkpt lat="59.995027897" lon="23.3993846953">
        <ele>13.8</ele>
        <time>2012-02-13T18:10:29Z</time>
      </trkpt>
      <trkpt lat="59.9948809623" lon="23.3992415325">
        <ele>15.4</ele>
        <time>2012-02-13T18:10:34Z</time>
      </trkpt>
      <trkpt lat="59.9947762724" lon="23.3991254432">
        <ele>16.2</ele>
        <time>2012-02-13T18:10:38Z</time>
      </trkpt>
      <trkpt lat="59.9947027631" lon="23.3989848787">
        <ele>17.2</ele>
        <time>2012-02-13T18:10:43Z</time>
      </trkpt>
      <trkpt lat="59.9946554054" lon="23.3987842998">
        <ele>18.2</ele>
        <time>2012-02-13T18:10:47Z</time>
      </trkpt>
      <trkpt lat="59.9946225484" lon="23.3984741695">
        <ele>19</ele>
        <time>2012-02-13T18:10:52Z</time>
      </trkpt>
      <trkpt lat="59.9945883502" lon="23.398327151">
        <ele>19.8</ele>
        <time>2012-02-13T18:10:55Z</time>
      </trkpt>
      <trkpt lat="59.9945586783" lon="23.3982522168">
        <ele>20.2</ele>
        <time>2012-02-13T18:10:57Z</time>
      </trkpt>
      <trkpt lat="59.9945415792" lon="23.3982201142">
        <ele>20.4</ele>
        <time>2012-02-13T18:10:58Z</time>
      </trkpt>
      <trkpt lat="59.9944038646" lon="23.398072006">
        <ele>20.8</ele>
        <time>2012-02-13T18:11:02Z</time>
      </trkpt>
      <trkpt lat="59.994250392" lon="23.3978268354">
        <ele>21.2</ele>
        <time>2012-02-13T18:11:07Z</time>
      </trkpt>
      <trkpt lat="59.9941602028" lon="23.3975432757">
        <ele>21.6</ele>
        <time>2012-02-13T18:11:13Z</time>
      </trkpt>
      <trkpt lat="59.9940956621" lon="23.3972677627">
        <ele>21.6</ele>
        <time>2012-02-13T18:11:17Z</time>
      </trkpt>
      <trkpt lat="59.9939909722" lon="23.3969370967">
        <ele>21.6</ele>
        <time>2012-02-13T18:11:20Z</time>
      </trkpt>
      <trkpt lat="59.993816461" lon="23.3965055127">
        <ele>21.8</ele>
        <time>2012-02-13T18:11:23Z</time>
      </trkpt>
      <trkpt lat="59.9935960171" lon="23.3960408202">
        <ele>21.8</ele>
        <time>2012-02-13T18:11:27Z</time>
      </trkpt>
      <trkpt lat="59.9934852084" lon="23.3958140059">
        <ele>21.8</ele>
        <time>2012-02-13T18:11:30Z</time>
      </trkpt>
      <trkpt lat="59.9934350846" lon="23.3956999283">
        <ele>21.8</ele>
        <time>2012-02-13T18:11:32Z</time>
      </trkpt>
      <trkpt lat="59.9933777524" lon="23.3956346333">
        <ele>21.8</ele>
        <time>2012-02-13T18:11:35Z</time>
      </trkpt>
      <trkpt lat="59.9933041593" lon="23.395481496">
        <ele>21.8</ele>
        <time>2012-02-13T18:11:41Z</time>
      </trkpt>
      <trkpt lat="59.9932914188" lon="23.3954576914">
        <ele>21.8</ele>
        <time>2012-02-13T18:11:42Z</time>
      </trkpt>
      <trkpt lat="59.9931988826" lon="23.3952960883">
        <ele>21.8</ele>
        <time>2012-02-13T18:11:48Z</time>
      </trkpt>
      <trkpt lat="59.9930870681" lon="23.3951281151">
        <ele>21.8</ele>
        <time>2012-02-13T18:11:54Z</time>
      </trkpt>
      <trkpt lat="59.9930022433" lon="23.3949698648">
        <ele>21.8</ele>
        <time>2012-02-13T18:12:00Z</time>
      </trkpt>
      <trkpt lat="59.9929336793" lon="23.3948452259">
        <ele>22.2</ele>
        <time>2012-02-13T18:12:05Z</time>
      </trkpt>
      <trkpt lat="59.992879197" lon="23.3947188269">
        <ele>22.8</ele>
        <time>2012-02-13T18:12:09Z</time>
      </trkpt>
      <trkpt lat="59.9928299952" lon="23.3946200043">
        <ele>23.2</ele>
        <time>2012-02-13T18:12:13Z</time>
      </trkpt>
      <trkpt lat="59.9928076156" lon="23.3945675336">
        <ele>23.4</ele>
        <time>2012-02-13T18:12:15Z</time>
      </trkpt>
      <trkpt lat="59.9927408956" lon="23.394458988">
        <ele>24.4</ele>
        <time>2012-02-13T18:12:20Z</time>
      </trkpt>
      <trkpt lat="59.9926941246" lon="23.3943574832">
        <ele>24.8</ele>
        <time>2012-02-13T18:12:23Z</time>
      </trkpt>
      <trkpt lat="59.9925919493" lon="23.3941764341">
        <ele>25.4</ele>
        <time>2012-02-13T18:12:29Z</time>
      </trkpt>
      <trkpt lat="59.992513327" lon="23.3939829799">
        <ele>26.2</ele>
        <time>2012-02-13T18:12:35Z</time>
      </trkpt>
      <trkpt lat="59.9924302624" lon="23.3937295112">
        <ele>27</ele>
        <time>2012-02-13T18:12:41Z</time>
      </trkpt>
      <trkpt lat="59.9923731817" lon="23.3935273398">
        <ele>27.6</ele>
        <time>2012-02-13T18:12:46Z</time>
      </trkpt>
      <trkpt lat="59.9923187831" lon="23.393300777">
        <ele>27.8</ele>
        <time>2012-02-13T18:12:51Z</time>
      </trkpt>
      <trkpt lat="59.9922720121" lon="23.3931203147">
        <ele>27.8</ele>
        <time>2012-02-13T18:12:55Z</time>
      </trkpt>
      <trkpt lat="59.9922062142" lon="23.3929215799">
        <ele>28.6</ele>
        <time>2012-02-13T18:13:00Z</time>
      </trkpt>
      <trkpt lat="59.9921016919" lon="23.3926924187">
        <ele>29.2</ele>
        <time>2012-02-13T18:13:05Z</time>
      </trkpt>
      <trkpt lat="59.9920827488" lon="23.3926437199">
        <ele>29.2</ele>
        <time>2012-02-13T18:13:06Z</time>
      </trkpt>
      <trkpt lat="59.9919497281" lon="23.3925636728">
        <ele>29.6</ele>
        <time>2012-02-13T18:13:10Z</time>
      </trkpt>
      <trkpt lat="59.9918241672" lon="23.3926521018">
        <ele>29.8</ele>
        <time>2012-02-13T18:13:14Z</time>
      </trkpt>
      <trkpt lat="59.9918021228" lon="23.392695101">
        <ele>29.8</ele>
        <time>2012-02-13T18:13:15Z</time>
      </trkpt>
      <trkpt lat="59.9917069883" lon="23.3928901478">
        <ele>29.8</ele>
        <time>2012-02-13T18:13:19Z</time>
      </trkpt>
      <trkpt lat="59.9915468102" lon="23.393000705">
        <ele>30</ele>
        <time>2012-02-13T18:13:26Z</time>
      </trkpt>
      <trkpt lat="59.9913785016" lon="23.3931262659">
        <ele>30</ele>
        <time>2012-02-13T18:13:31Z</time>
      </trkpt>
      <trkpt lat="59.9910146433" lon="23.3931902198">
        <ele>30</ele>
        <time>2012-02-13T18:13:39Z</time>
      </trkpt>
      <trkpt lat="59.9909701354" lon="23.3931960033">
        <ele>30</ele>
        <time>2012-02-13T18:13:40Z</time>
      </trkpt>
      <trkpt lat="59.9907175888" lon="23.393335981">
        <ele>30</ele>
        <time>2012-02-13T18:13:45Z</time>
      </trkpt>
      <trkpt lat="59.9906750926" lon="23.3933717717">
        <ele>30.2</ele>
        <time>2012-02-13T18:13:46Z</time>
      </trkpt>
      <trkpt lat="59.9904893497" lon="23.3937153458">
        <ele>30.2</ele>
        <time>2012-02-13T18:13:51Z</time>
      </trkpt>
      <trkpt lat="59.9904773635" lon="23.39378567">
        <ele>30.2</ele>
        <time>2012-02-13T18:13:52Z</time>
      </trkpt>
      <trkpt lat="59.9904633658" lon="23.3939314312">
        <ele>30.2</ele>
        <time>2012-02-13T18:13:54Z</time>
      </trkpt>
      <trkpt lat="59.9904670538" lon="23.3941569881">
        <ele>30.2</ele>
        <time>2012-02-13T18:13:58Z</time>
      </trkpt>
      <trkpt lat="59.9904421596" lon="23.3944939405">
        <ele>30.2</ele>
        <time>2012-02-13T18:14:03Z</time>
      </trkpt>
      <trkpt lat="59.9903513836" lon="23.3948647558">
        <ele>30.2</ele>
        <time>2012-02-13T18:14:08Z</time>
      </trkpt>
      <trkpt lat="59.9902584283" lon="23.3951557753">
        <ele>30.2</ele>
        <time>2012-02-13T18:14:12Z</time>
      </trkpt>
      <trkpt lat="59.9902137528" lon="23.3953793206">
        <ele>30.2</ele>
        <time>2012-02-13T18:14:15Z</time>
      </trkpt>
      <trkpt lat="59.9902228052" lon="23.3956970784">
        <ele>30.2</ele>
        <time>2012-02-13T18:14:19Z</time>
      </trkpt>
      <trkpt lat="59.9902520581" lon="23.3958201247">
        <ele>30.2</ele>
        <time>2012-02-13T18:14:21Z</time>
      </trkpt>
      <trkpt lat="59.9903404871" lon="23.3960675584">
        <ele>30.2</ele>
        <time>2012-02-13T18:14:26Z</time>
      </trkpt>
      <trkpt lat="59.9903510483" lon="23.3961086297">
        <ele>30.2</ele>
        <time>2012-02-13T18:14:27Z</time>
      </trkpt>
      <trkpt lat="59.9902644633" lon="23.3968361786">
        <ele>30.2</ele>
        <time>2012-02-13T18:14:37Z</time>
      </trkpt>
      <trkpt lat="59.990234037" lon="23.3969352527">
        <ele>30.2</ele>
        <time>2012-02-13T18:14:39Z</time>
      </trkpt>
      <trkpt lat="59.990076122" lon="23.3972757255">
        <ele>30.2</ele>
        <time>2012-02-13T18:14:45Z</time>
      </trkpt>
      <trkpt lat="59.9899997629" lon="23.3975099996">
        <ele>30.2</ele>
        <time>2012-02-13T18:14:49Z</time>
      </trkpt>
      <trkpt lat="59.9899729408" lon="23.3978112451">
        <ele>30.2</ele>
        <time>2012-02-13T18:14:54Z</time>
      </trkpt>
      <trkpt lat="59.9900031156" lon="23.3980722574">
        <ele>30.2</ele>
        <time>2012-02-13T18:14:59Z</time>
      </trkpt>
      <trkpt lat="59.9900845877" lon="23.3983462617">
        <ele>30.2</ele>
        <time>2012-02-13T18:15:05Z</time>
      </trkpt>
      <trkpt lat="59.9901456918" lon="23.3985872414">
        <ele>30.2</ele>
        <time>2012-02-13T18:15:09Z</time>
      </trkpt>
      <trkpt lat="59.9901522296" lon="23.3986802805">
        <ele>30.2</ele>
        <time>2012-02-13T18:15:10Z</time>
      </trkpt>
      <trkpt lat="59.9900429297" lon="23.3990175681">
        <ele>30.2</ele>
        <time>2012-02-13T18:15:14Z</time>
      </trkpt>
      <trkpt lat="59.9900149341" lon="23.3990616569">
        <ele>30.2</ele>
        <time>2012-02-13T18:15:15Z</time>
      </trkpt>
      <trkpt lat="59.9899656485" lon="23.3991584679">
        <ele>30.2</ele>
        <time>2012-02-13T18:15:17Z</time>
      </trkpt>
      <trkpt lat="59.9898918878" lon="23.3992863757">
        <ele>30.2</ele>
        <time>2012-02-13T18:15:20Z</time>
      </trkpt>
      <trkpt lat="59.9897165385" lon="23.3995400958">
        <ele>29</ele>
        <time>2012-02-13T18:15:28Z</time>
      </trkpt>
      <trkpt lat="59.9896730364" lon="23.3996010322">
        <ele>28.8</ele>
        <time>2012-02-13T18:15:30Z</time>
      </trkpt>
      <trkpt lat="59.9895373335" lon="23.3997873618">
        <ele>28.6</ele>
        <time>2012-02-13T18:15:36Z</time>
      </trkpt>
      <trkpt lat="59.9894558614" lon="23.3999205502">
        <ele>28.4</ele>
        <time>2012-02-13T18:15:40Z</time>
      </trkpt>
      <trkpt lat="59.9893887224" lon="23.4001643797">
        <ele>28.2</ele>
        <time>2012-02-13T18:15:45Z</time>
      </trkpt>
      <trkpt lat="59.9893400235" lon="23.4004315947">
        <ele>28.2</ele>
        <time>2012-02-13T18:15:49Z</time>
      </trkpt>
      <trkpt lat="59.9893131176" lon="23.4007985542">
        <ele>28.2</ele>
        <time>2012-02-13T18:15:53Z</time>
      </trkpt>
      <trkpt lat="59.9893866269" lon="23.4011495044">
        <ele>28.2</ele>
        <time>2012-02-13T18:15:56Z</time>
      </trkpt>
      <trkpt lat="59.9894827673" lon="23.401524762">
        <ele>27.6</ele>
        <time>2012-02-13T18:16:00Z</time>
      </trkpt>
      <trkpt lat="59.9894925741" lon="23.4015722874">
        <ele>27.4</ele>
        <time>2012-02-13T18:16:01Z</time>
      </trkpt>
      <trkpt lat="59.9895149538" lon="23.4016514964">
        <ele>26.8</ele>
        <time>2012-02-13T18:16:06Z</time>
      </trkpt>
      <trkpt lat="59.9895115172" lon="23.4017465471">
        <ele>26.6</ele>
        <time>2012-02-13T18:16:10Z</time>
      </trkpt>
      <trkpt lat="59.989477822" lon="23.4018427713">
        <ele>26.4</ele>
        <time>2012-02-13T18:16:14Z</time>
      </trkpt>
      <trkpt lat="59.9893805081" lon="23.4021327013">
        <ele>26.2</ele>
        <time>2012-02-13T18:16:20Z</time>
      </trkpt>
      <trkpt lat="59.9891923344" lon="23.4026575758">
        <ele>26.2</ele>
        <time>2012-02-13T18:16:26Z</time>
      </trkpt>
      <trkpt lat="59.9891597289" lon="23.4027806221">
        <ele>26.2</ele>
        <time>2012-02-13T18:16:27Z</time>
      </trkpt>
      <trkpt lat="59.9890536978" lon="23.4031951071">
        <ele>26.2</ele>
        <time>2012-02-13T18:16:30Z</time>
      </trkpt>
      <trkpt lat="59.9889822002" lon="23.4034509227">
        <ele>25.6</ele>
        <time>2012-02-13T18:16:32Z</time>
      </trkpt>
      <trkpt lat="59.9889570545" lon="23.4037514138">
        <ele>25.2</ele>
        <time>2012-02-13T18:16:35Z</time>
      </trkpt>
      <trkpt lat="59.9890461541" lon="23.4037075764">
        <ele>24.8</ele>
        <time>2012-02-13T18:16:38Z</time>
      </trkpt>
      <trkpt lat="59.9890731438" lon="23.4036638229">
        <ele>24.8</ele>
        <time>2012-02-13T18:16:39Z</time>
      </trkpt>
      <trkpt lat="59.9891518499" lon="23.4035517569">
        <ele>24.4</ele>
        <time>2012-02-13T18:16:41Z</time>
      </trkpt>
      <trkpt lat="59.9893582961" lon="23.4032157266">
        <ele>23.2</ele>
        <time>2012-02-13T18:16:46Z</time>
      </trkpt>
      <trkpt lat="59.9894743854" lon="23.4031570533">
        <ele>22.2</ele>
        <time>2012-02-13T18:16:49Z</time>
      </trkpt>
      <trkpt lat="59.9896381677" lon="23.4032551215">
        <ele>21.2</ele>
        <time>2012-02-13T18:16:53Z</time>
      </trkpt>
      <trkpt lat="59.9896787361" lon="23.4032952708">
        <ele>21</ele>
        <time>2012-02-13T18:16:54Z</time>
      </trkpt>
      <trkpt lat="59.9898203902" lon="23.4034347456">
        <ele>20</ele>
        <time>2012-02-13T18:16:59Z</time>
      </trkpt>
      <trkpt lat="59.9898503136" lon="23.4034673512">
        <ele>19.2</ele>
        <time>2012-02-13T18:17:02Z</time>
      </trkpt>
      <trkpt lat="59.989908484" lon="23.4035615637">
        <ele>18</ele>
        <time>2012-02-13T18:17:10Z</time>
      </trkpt>
      <trkpt lat="59.9899757068" lon="23.4036234222">
        <ele>18.6</ele>
        <time>2012-02-13T18:17:18Z</time>
      </trkpt>
      <trkpt lat="59.990125659" lon="23.4037420261">
        <ele>21.6</ele>
        <time>2012-02-13T18:17:32Z</time>
      </trkpt>
      <trkpt lat="59.9902247331" lon="23.4038550141">
        <ele>22.2</ele>
        <time>2012-02-13T18:17:37Z</time>
      </trkpt>
      <trkpt lat="59.9903742662" lon="23.4039726959">
        <ele>22.8</ele>
        <time>2012-02-13T18:17:41Z</time>
      </trkpt>
      <trkpt lat="59.9905579136" lon="23.4040187126">
        <ele>23.6</ele>
        <time>2012-02-13T18:17:45Z</time>
      </trkpt>
      <trkpt lat="59.9907329277" lon="23.404019886">
        <ele>24.4</ele>
        <time>2012-02-13T18:17:49Z</time>
      </trkpt>
      <trkpt lat="59.9907864042" lon="23.404032878">
        <ele>24.4</ele>
        <time>2012-02-13T18:17:50Z</time>
      </trkpt>
      <trkpt lat="59.9908977996" lon="23.4042539087">
        <ele>24.8</ele>
        <time>2012-02-13T18:17:53Z</time>
      </trkpt>
      <trkpt lat="59.9909134738" lon="23.4043607779">
        <ele>24.8</ele>
        <time>2012-02-13T18:17:54Z</time>
      </trkpt>
      <trkpt lat="59.9909572273" lon="23.4048900949">
        <ele>24.6</ele>
        <time>2012-02-13T18:17:59Z</time>
      </trkpt>
      <trkpt lat="59.9909563053" lon="23.4051839643">
        <ele>24.2</ele>
        <time>2012-02-13T18:18:03Z</time>
      </trkpt>
      <trkpt lat="59.9909532878" lon="23.4052514386">
        <ele>24.2</ele>
        <time>2012-02-13T18:18:04Z</time>
      </trkpt>
      <trkpt lat="59.9909377813" lon="23.4055871337">
        <ele>24</ele>
        <time>2012-02-13T18:18:09Z</time>
      </trkpt>
      <trkpt lat="59.9910085245" lon="23.4059037181">
        <ele>23</ele>
        <time>2012-02-13T18:18:14Z</time>
      </trkpt>
      <trkpt lat="59.9910349275" lon="23.405955602">
        <ele>23</ele>
        <time>2012-02-13T18:18:15Z</time>
      </trkpt>
      <trkpt lat="59.9911493405" lon="23.4060033789">
        <ele>22.4</ele>
        <time>2012-02-13T18:18:19Z</time>
      </trkpt>
      <trkpt lat="59.9913226782" lon="23.4059125191">
        <ele>21.8</ele>
        <time>2012-02-13T18:18:26Z</time>
      </trkpt>
      <trkpt lat="59.9915132826" lon="23.4058276942">
        <ele>20.4</ele>
        <time>2012-02-13T18:18:34Z</time>
      </trkpt>
      <trkpt lat="59.9916232531" lon="23.4057846951">
        <ele>19.6</ele>
        <time>2012-02-13T18:18:38Z</time>
      </trkpt>
      <trkpt lat="59.9918059785" lon="23.4057076654">
        <ele>18.6</ele>
        <time>2012-02-13T18:18:44Z</time>
      </trkpt>
      <trkpt lat="59.9919187989" lon="23.4055955994">
        <ele>18</ele>
        <time>2012-02-13T18:18:49Z</time>
      </trkpt>
      <trkpt lat="59.9920317031" lon="23.4053656839">
        <ele>17.8</ele>
        <time>2012-02-13T18:18:55Z</time>
      </trkpt>
      <trkpt lat="59.9921156897" lon="23.4051578966">
        <ele>17.6</ele>
        <time>2012-02-13T18:19:00Z</time>
      </trkpt>
      <trkpt lat="59.9922194576" lon="23.4050124706">
        <ele>17.4</ele>
        <time>2012-02-13T18:19:05Z</time>
      </trkpt>
      <trkpt lat="59.9923363013" lon="23.4049355248">
        <ele>17.4</ele>
        <time>2012-02-13T18:19:09Z</time>
      </trkpt>
      <trkpt lat="59.9924525583" lon="23.4049034221">
        <ele>17.4</ele>
        <time>2012-02-13T18:19:13Z</time>
      </trkpt>
      <trkpt lat="59.9926315118" lon="23.4049739977">
        <ele>17.4</ele>
        <time>2012-02-13T18:19:19Z</time>
      </trkpt>
      <trkpt lat="59.9929003194" lon="23.4049930246">
        <ele>16.6</ele>
        <time>2012-02-13T18:19:25Z</time>
      </trkpt>
      <trkpt lat="59.9929663687" lon="23.40496461">
        <ele>16.4</ele>
        <time>2012-02-13T18:19:26Z</time>
      </trkpt>
      <trkpt lat="59.9930966235" lon="23.4048599201">
        <ele>16.2</ele>
        <time>2012-02-13T18:19:28Z</time>
      </trkpt>
      <trkpt lat="59.9934016408" lon="23.4038787348">
        <ele>14.6</ele>
        <time>2012-02-13T18:19:38Z</time>
      </trkpt>
      <trkpt lat="59.9934295525" lon="23.4035461411">
        <ele>13.2</ele>
        <time>2012-02-13T18:19:43Z</time>
      </trkpt>
      <trkpt lat="59.9934355037" lon="23.4034950115">
        <ele>13</ele>
        <time>2012-02-13T18:19:44Z</time>
      </trkpt>
      <trkpt lat="59.9934805145" lon="23.403241459">
        <ele>12.2</ele>
        <time>2012-02-13T18:19:49Z</time>
      </trkpt>
      <trkpt lat="59.993519658" lon="23.40304373">
        <ele>11.8</ele>
        <time>2012-02-13T18:19:53Z</time>
      </trkpt>
      <trkpt lat="59.9935623218" lon="23.4028295724">
        <ele>11.6</ele>
        <time>2012-02-13T18:19:57Z</time>
      </trkpt>
      <trkpt lat="59.9935722125" lon="23.402781628">
        <ele>11.6</ele>
        <time>2012-02-13T18:19:58Z</time>
      </trkpt>
      <trkpt lat="59.9936202408" lon="23.4026194382">
        <ele>11.4</ele>
        <time>2012-02-13T18:20:01Z</time>
      </trkpt>
      <trkpt lat="59.993679417" lon="23.4024233855">
        <ele>11.2</ele>
        <time>2012-02-13T18:20:05Z</time>
      </trkpt>
      <trkpt lat="59.9937442091" lon="23.4021685758">
        <ele>11.2</ele>
        <time>2012-02-13T18:20:11Z</time>
      </trkpt>
      <trkpt lat="59.9938024633" lon="23.4019240758">
        <ele>11.2</ele>
        <time>2012-02-13T18:20:16Z</time>
      </trkpt>
      <trkpt lat="59.9938562751" lon="23.4017560187">
        <ele>11.2</ele>
        <time>2012-02-13T18:20:20Z</time>
      </trkpt>
      <trkpt lat="59.9939729511" lon="23.4015513327">
        <ele>11</ele>
        <time>2012-02-13T18:20:25Z</time>
      </trkpt>
      <trkpt lat="59.9940989311" lon="23.4013922442">
        <ele>11</ele>
        <time>2012-02-13T18:20:29Z</time>
      </trkpt>
      <trkpt lat="59.9942974145" lon="23.4012302221">
        <ele>11</ele>
        <time>2012-02-13T18:20:35Z</time>
      </trkpt>
      <trkpt lat="59.9943288466" lon="23.4012026456">
        <ele>11</ele>
        <time>2012-02-13T18:20:36Z</time>
      </trkpt>
      <trkpt lat="59.9944476181" lon="23.4011094389">
        <ele>11</ele>
        <time>2012-02-13T18:20:41Z</time>
      </trkpt>
      <trkpt lat="59.9945570019" lon="23.4010240273">
        <ele>11</ele>
        <time>2012-02-13T18:20:45Z</time>
      </trkpt>
      <trkpt lat="59.99465792" lon="23.4009210976">
        <ele>11</ele>
        <time>2012-02-13T18:20:50Z</time>
      </trkpt>
      <trkpt lat="59.9947795413" lon="23.4007807008">
        <ele>11.2</ele>
        <time>2012-02-13T18:20:56Z</time>
      </trkpt>
      <trkpt lat="59.9948671322" lon="23.4006296589">
        <ele>12.2</ele>
        <time>2012-02-13T18:21:02Z</time>
      </trkpt>
      <trkpt lat="59.9949745043" lon="23.4004168425">
        <ele>12.6</ele>
        <time>2012-02-13T18:21:10Z</time>
      </trkpt>
      <trkpt lat="59.9950419786" lon="23.4002180238">
        <ele>13.2</ele>
        <time>2012-02-13T18:21:17Z</time>
      </trkpt>
      <trkpt lat="59.9950887496" lon="23.4000127511">
        <ele>14.2</ele>
        <time>2012-02-13T18:21:23Z</time>
      </trkpt>
      <trkpt lat="59.9950952037" lon="23.3999811513">
        <ele>14.2</ele>
        <time>2012-02-13T18:21:24Z</time>
      </trkpt>
      <trkpt lat="59.9951110455" lon="23.3997214801">
        <ele>15.6</ele>
        <time>2012-02-13T18:21:30Z</time>
      </trkpt>
      <trkpt lat="59.9950785237" lon="23.3995240863">
        <ele>16.4</ele>
        <time>2012-02-13T18:21:36Z</time>
      </trkpt>
      <trkpt lat="59.9950152404" lon="23.3993929096">
        <ele>17.8</ele>
        <time>2012-02-13T18:21:41Z</time>
      </trkpt>
      <trkpt lat="59.994913987" lon="23.3992684384">
        <ele>18.4</ele>
        <time>2012-02-13T18:21:45Z</time>
      </trkpt>
      <trkpt lat="59.9948129013" lon="23.3991649219">
        <ele>18.8</ele>
        <time>2012-02-13T18:21:48Z</time>
      </trkpt>
      <trkpt lat="59.994786666" lon="23.3991385189">
        <ele>19</ele>
        <time>2012-02-13T18:21:49Z</time>
      </trkpt>
      <trkpt lat="59.9946955547" lon="23.3990256986">
        <ele>19.2</ele>
        <time>2012-02-13T18:21:53Z</time>
      </trkpt>
      <trkpt lat="59.9946493704" lon="23.3988401233">
        <ele>19.4</ele>
        <time>2012-02-13T18:21:58Z</time>
      </trkpt>
      <trkpt lat="59.9946127415" lon="23.3985506125">
        <ele>19.6</ele>
        <time>2012-02-13T18:22:03Z</time>
      </trkpt>
      <trkpt lat="59.9945694071" lon="23.3983528835">
        <ele>19.6</ele>
        <time>2012-02-13T18:22:07Z</time>
      </trkpt>
      <trkpt lat="59.9944897791" lon="23.3981837367">
        <ele>20.4</ele>
        <time>2012-02-13T18:22:12Z</time>
      </trkpt>
      <trkpt lat="59.9943187045" lon="23.39799791">
        <ele>21</ele>
        <time>2012-02-13T18:22:17Z</time>
      </trkpt>
      <trkpt lat="59.9941894556" lon="23.3977627139">
        <ele>21.4</ele>
        <time>2012-02-13T18:22:23Z</time>
      </trkpt>
      <trkpt lat="59.9941419302" lon="23.397583425">
        <ele>21.6</ele>
        <time>2012-02-13T18:22:27Z</time>
      </trkpt>
      <trkpt lat="59.9939259287" lon="23.396745235">
        <ele>21.6</ele>
        <time>2012-02-13T18:22:36Z</time>
      </trkpt>
      <trkpt lat="59.9938610527" lon="23.3965784352">
        <ele>21.6</ele>
        <time>2012-02-13T18:22:37Z</time>
      </trkpt>
      <trkpt lat="59.9937365815" lon="23.3962878347">
        <ele>21.8</ele>
        <time>2012-02-13T18:22:39Z</time>
      </trkpt>
      <trkpt lat="59.9935758167" lon="23.3959572526">
        <ele>21.8</ele>
        <time>2012-02-13T18:22:42Z</time>
      </trkpt>
      <trkpt lat="59.9934330729" lon="23.3956836674">
        <ele>21.8</ele>
        <time>2012-02-13T18:22:46Z</time>
      </trkpt>
      <trkpt lat="59.9934031496" lon="23.3956562586">
        <ele>21.8</ele>
        <time>2012-02-13T18:22:47Z</time>
      </trkpt>
      <trkpt lat="59.9933611562" lon="23.3955786422">
        <ele>21.8</ele>
        <time>2012-02-13T18:22:51Z</time>
      </trkpt>
      <trkpt lat="59.9933531096" lon="23.3955625489">
        <ele>21.8</ele>
        <time>2012-02-13T18:22:52Z</time>
      </trkpt>
      <trkpt lat="59.993287647" lon="23.3954566017">
        <ele>21.8</ele>
        <time>2012-02-13T18:22:57Z</time>
      </trkpt>
      <trkpt lat="59.9932049176" lon="23.3953065657">
        <ele>21.8</ele>
        <time>2012-02-13T18:23:03Z</time>
      </trkpt>
      <trkpt lat="59.993190836" lon="23.3952703559">
        <ele>21.8</ele>
        <time>2012-02-13T18:23:04Z</time>
      </trkpt>
      <trkpt lat="59.9931590686" lon="23.3952354034">
        <ele>21.8</ele>
        <time>2012-02-13T18:23:06Z</time>
      </trkpt>
      <trkpt lat="59.9930730703" lon="23.3950576233">
        <ele>22.8</ele>
        <time>2012-02-13T18:23:12Z</time>
      </trkpt>
      <trkpt lat="59.9930366929" lon="23.3949875506">
        <ele>23</ele>
        <time>2012-02-13T18:23:15Z</time>
      </trkpt>
      <trkpt lat="59.9929790254" lon="23.3948548651">
        <ele>23.4</ele>
        <time>2012-02-13T18:23:20Z</time>
      </trkpt>
      <trkpt lat="59.9928811248" lon="23.3946982912">
        <ele>23.6</ele>
        <time>2012-02-13T18:23:27Z</time>
      </trkpt>
      <trkpt lat="59.9928560629" lon="23.3946591478">
        <ele>23.6</ele>
        <time>2012-02-13T18:23:29Z</time>
      </trkpt>
      <trkpt lat="59.9927791171" lon="23.3945417173">
        <ele>24.2</ele>
        <time>2012-02-13T18:23:34Z</time>
      </trkpt>
      <trkpt lat="59.9927021713" lon="23.3943485145">
        <ele>25</ele>
        <time>2012-02-13T18:23:40Z</time>
      </trkpt>
      <trkpt lat="59.9925685638" lon="23.3940784497">
        <ele>25.6</ele>
        <time>2012-02-13T18:23:48Z</time>
      </trkpt>
      <trkpt lat="59.992536042" lon="23.3940191897">
        <ele>25.6</ele>
        <time>2012-02-13T18:23:50Z</time>
      </trkpt>
      <trkpt lat="59.9924970662" lon="23.3938763621">
        <ele>25.8</ele>
        <time>2012-02-13T18:23:54Z</time>
      </trkpt>
      <trkpt lat="59.9924222158" lon="23.3936762862">
        <ele>25.8</ele>
        <time>2012-02-13T18:24:00Z</time>
      </trkpt>
      <trkpt lat="59.9924108164" lon="23.3936498832">
        <ele>25.8</ele>
        <time>2012-02-13T18:24:01Z</time>
      </trkpt>
      <trkpt lat="59.9923613632" lon="23.3934528247">
        <ele>26</ele>
        <time>2012-02-13T18:24:06Z</time>
      </trkpt>
      <trkpt lat="59.9923509696" lon="23.3934065566">
        <ele>26</ele>
        <time>2012-02-13T18:24:07Z</time>
      </trkpt>
      <trkpt lat="59.9922943918" lon="23.3931960033">
        <ele>26</ele>
        <time>2012-02-13T18:24:12Z</time>
      </trkpt>
      <trkpt lat="59.9922501354" lon="23.3930240067">
        <ele>26</ele>
        <time>2012-02-13T18:24:16Z</time>
      </trkpt>
      <trkpt lat="59.9921809009" lon="23.3928194045">
        <ele>26</ele>
        <time>2012-02-13T18:24:21Z</time>
      </trkpt>
      <trkpt lat="59.9919199723" lon="23.3926192448">
        <ele>26</ele>
        <time>2012-02-13T18:24:30Z</time>
      </trkpt>
      <trkpt lat="59.9918841816" lon="23.3926271237">
        <ele>26</ele>
        <time>2012-02-13T18:24:31Z</time>
      </trkpt>
      <trkpt lat="59.9917248417" lon="23.3928676005">
        <ele>26</ele>
        <time>2012-02-13T18:24:37Z</time>
      </trkpt>
      <trkpt lat="59.9916600496" lon="23.3929647467">
        <ele>26</ele>
        <time>2012-02-13T18:24:40Z</time>
      </trkpt>
      <trkpt lat="59.9915199043" lon="23.3930263536">
        <ele>26.4</ele>
        <time>2012-02-13T18:24:45Z</time>
      </trkpt>
      <trkpt lat="59.9914513403" lon="23.3930666706">
        <ele>26.6</ele>
        <time>2012-02-13T18:24:47Z</time>
      </trkpt>
      <trkpt lat="59.9912440559" lon="23.3932517429">
        <ele>27.2</ele>
        <time>2012-02-13T18:24:52Z</time>
      </trkpt>
      <trkpt lat="59.9911504301" lon="23.3932489769">
        <ele>27.4</ele>
        <time>2012-02-13T18:24:54Z</time>
      </trkpt>
      <trkpt lat="59.9910618334" lon="23.3932366555">
        <ele>27.4</ele>
        <time>2012-02-13T18:24:56Z</time>
      </trkpt>
      <trkpt lat="59.9909607477" lon="23.3932488093">
        <ele>27.6</ele>
        <time>2012-02-13T18:24:58Z</time>
      </trkpt>
      <trkpt lat="59.9906945386" lon="23.3933969174">
        <ele>27.8</ele>
        <time>2012-02-13T18:25:03Z</time>
      </trkpt>
      <trkpt lat="59.9906455883" lon="23.3934394137">
        <ele>27.8</ele>
        <time>2012-02-13T18:25:04Z</time>
      </trkpt>
      <trkpt lat="59.9904675567" lon="23.3938049483">
        <ele>27.8</ele>
        <time>2012-02-13T18:25:09Z</time>
      </trkpt>
      <trkpt lat="59.9904540619" lon="23.3939489494">
        <ele>27.8</ele>
        <time>2012-02-13T18:25:11Z</time>
      </trkpt>
      <trkpt lat="59.9904520502" lon="23.3940579141">
        <ele>27.8</ele>
        <time>2012-02-13T18:25:13Z</time>
      </trkpt>
      <trkpt lat="59.9904542295" lon="23.3940886756">
        <ele>28</ele>
        <time>2012-02-13T18:25:14Z</time>
      </trkpt>
      <trkpt lat="59.9904626114" lon="23.3942424835">
        <ele>28</ele>
        <time>2012-02-13T18:25:18Z</time>
      </trkpt>
      <trkpt lat="59.9904649583" lon="23.3942915176">
        <ele>28</ele>
        <time>2012-02-13T18:25:19Z</time>
      </trkpt>
      <trkpt lat="59.9904244737" lon="23.3946405399">
        <ele>28</ele>
        <time>2012-02-13T18:25:24Z</time>
      </trkpt>
      <trkpt lat="59.9903712487" lon="23.3949042345">
        <ele>28</ele>
        <time>2012-02-13T18:25:27Z</time>
      </trkpt>
      <trkpt lat="59.9903150061" lon="23.3951380895">
        <ele>28</ele>
        <time>2012-02-13T18:25:30Z</time>
      </trkpt>
      <trkpt lat="59.9902945543" lon="23.395195757">
        <ele>28</ele>
        <time>2012-02-13T18:25:31Z</time>
      </trkpt>
      <trkpt lat="59.9902311871" lon="23.3954583619">
        <ele>28</ele>
        <time>2012-02-13T18:25:34Z</time>
      </trkpt>
      <trkpt lat="59.9902290917" lon="23.395852395">
        <ele>28</ele>
        <time>2012-02-13T18:25:39Z</time>
      </trkpt>
      <trkpt lat="59.9902410778" lon="23.3958972382">
        <ele>28</ele>
        <time>2012-02-13T18:25:40Z</time>
      </trkpt>
      <trkpt lat="59.9903378049" lon="23.396206698">
        <ele>28</ele>
        <time>2012-02-13T18:25:47Z</time>
      </trkpt>
      <trkpt lat="59.9903421635" lon="23.3964846418">
        <ele>28</ele>
        <time>2012-02-13T18:25:51Z</time>
      </trkpt>
      <trkpt lat="59.9903150061" lon="23.3966998051">
        <ele>28</ele>
        <time>2012-02-13T18:25:54Z</time>
      </trkpt>
      <trkpt lat="59.9902396529" lon="23.396971714">
        <ele>28</ele>
        <time>2012-02-13T18:25:59Z</time>
      </trkpt>
      <trkpt lat="59.9902065443" lon="23.3970552815">
        <ele>28</ele>
        <time>2012-02-13T18:26:01Z</time>
      </trkpt>
      <trkpt lat="59.9900581009" lon="23.3973670044">
        <ele>28</ele>
        <time>2012-02-13T18:26:06Z</time>
      </trkpt>
      <trkpt lat="59.9900406665" lon="23.3974250071">
        <ele>27.8</ele>
        <time>2012-02-13T18:26:07Z</time>
      </trkpt>
      <trkpt lat="59.9899814065" lon="23.3976597841">
        <ele>27</ele>
        <time>2012-02-13T18:26:12Z</time>
      </trkpt>
      <trkpt lat="59.9899778023" lon="23.3979603591">
        <ele>26.4</ele>
        <time>2012-02-13T18:26:18Z</time>
      </trkpt>
      <trkpt lat="59.9899880282" lon="23.3980618639">
        <ele>26.4</ele>
        <time>2012-02-13T18:26:20Z</time>
      </trkpt>
      <trkpt lat="59.9900744456" lon="23.3983094652">
        <ele>26.2</ele>
        <time>2012-02-13T18:26:27Z</time>
      </trkpt>
      <trkpt lat="59.9901446021" lon="23.3985575694">
        <ele>26</ele>
        <time>2012-02-13T18:26:32Z</time>
      </trkpt>
      <trkpt lat="59.9901578455" lon="23.3986403826">
        <ele>26</ele>
        <time>2012-02-13T18:26:33Z</time>
      </trkpt>
      <trkpt lat="59.990077966" lon="23.3989763292">
        <ele>26</ele>
        <time>2012-02-13T18:26:37Z</time>
      </trkpt>
      <trkpt lat="59.9900185383" lon="23.3990843719">
        <ele>26</ele>
        <time>2012-02-13T18:26:39Z</time>
      </trkpt>
      <trkpt lat="59.9899752877" lon="23.3991665145">
        <ele>26</ele>
        <time>2012-02-13T18:26:41Z</time>
      </trkpt>
      <trkpt lat="59.9898920555" lon="23.3992947576">
        <ele>26</ele>
        <time>2012-02-13T18:26:45Z</time>
      </trkpt>
      <trkpt lat="59.9898036264" lon="23.3994291194">
        <ele>26</ele>
        <time>2012-02-13T18:26:49Z</time>
      </trkpt>
      <trkpt lat="59.9897129343" lon="23.3995500702">
        <ele>26</ele>
        <time>2012-02-13T18:26:53Z</time>
      </trkpt>
      <trkpt lat="59.9896193923" lon="23.399706225">
        <ele>26</ele>
        <time>2012-02-13T18:26:57Z</time>
      </trkpt>
      <trkpt lat="59.9895105952" lon="23.3998458675">
        <ele>26</ele>
        <time>2012-02-13T18:27:02Z</time>
      </trkpt>
      <trkpt lat="59.9894717032" lon="23.3999243221">
        <ele>26</ele>
        <time>2012-02-13T18:27:04Z</time>
      </trkpt>
      <trkpt lat="59.9893991159" lon="23.4002155093">
        <ele>26</ele>
        <time>2012-02-13T18:27:10Z</time>
      </trkpt>
      <trkpt lat="59.9893346591" lon="23.4005283218">
        <ele>26</ele>
        <time>2012-02-13T18:27:16Z</time>
      </trkpt>
      <trkpt lat="59.9893438792" lon="23.4008455767">
        <ele>26</ele>
        <time>2012-02-13T18:27:19Z</time>
      </trkpt>
      <trkpt lat="59.9894675122" lon="23.4013828565">
        <ele>26</ele>
        <time>2012-02-13T18:27:24Z</time>
      </trkpt>
      <trkpt lat="59.9895007045" lon="23.4015237562">
        <ele>26</ele>
        <time>2012-02-13T18:27:27Z</time>
      </trkpt>
      <trkpt lat="59.9895069072" lon="23.4015309647">
        <ele>26</ele>
        <time>2012-02-13T18:27:28Z</time>
      </trkpt>
      <trkpt lat="59.9895092541" lon="23.4017020392">
        <ele>26</ele>
        <time>2012-02-13T18:27:37Z</time>
      </trkpt>
      <trkpt lat="59.9894421151" lon="23.4019283505">
        <ele>26</ele>
        <time>2012-02-13T18:27:44Z</time>
      </trkpt>
      <trkpt lat="59.9893414484" lon="23.4022389837">
        <ele>26</ele>
        <time>2012-02-13T18:27:49Z</time>
      </trkpt>
      <trkpt lat="59.9892168096" lon="23.4025864973">
        <ele>26</ele>
        <time>2012-02-13T18:27:53Z</time>
      </trkpt>
      <trkpt lat="59.9891840364" lon="23.4026853199">
        <ele>26</ele>
        <time>2012-02-13T18:27:54Z</time>
      </trkpt>
      <trkpt lat="59.9890446454" lon="23.4032064226">
        <ele>26</ele>
        <time>2012-02-13T18:27:58Z</time>
      </trkpt>
      <trkpt lat="59.9889639277" lon="23.4034917425">
        <ele>26</ele>
        <time>2012-02-13T18:28:00Z</time>
      </trkpt>
      <trkpt lat="59.9889823679" lon="23.4037283636">
        <ele>26</ele>
        <time>2012-02-13T18:28:03Z</time>
      </trkpt>
      <trkpt lat="59.9890821125" lon="23.4036061555">
        <ele>26</ele>
        <time>2012-02-13T18:28:06Z</time>
      </trkpt>
      <trkpt lat="59.9891275424" lon="23.4035306345">
        <ele>26</ele>
        <time>2012-02-13T18:28:07Z</time>
      </trkpt>
      <trkpt lat="59.9891687813" lon="23.4034458097">
        <ele>26</ele>
        <time>2012-02-13T18:28:08Z</time>
      </trkpt>
      <trkpt lat="59.9892567074" lon="23.403294265">
        <ele>26</ele>
        <time>2012-02-13T18:28:10Z</time>
      </trkpt>
      <trkpt lat="59.9893328151" lon="23.4031899941">
        <ele>26</ele>
        <time>2012-02-13T18:28:12Z</time>
      </trkpt>
      <trkpt lat="59.9894252674" lon="23.4031186642">
        <ele>25.4</ele>
        <time>2012-02-13T18:28:15Z</time>
      </trkpt>
      <trkpt lat="59.9896256787" lon="23.4032481645">
        <ele>24.6</ele>
        <time>2012-02-13T18:28:20Z</time>
      </trkpt>
      <trkpt lat="59.9897276026" lon="23.4033395272">
        <ele>24.6</ele>
        <time>2012-02-13T18:28:23Z</time>
      </trkpt>
      <trkpt lat="59.9898084879" lon="23.4034421217">
        <ele>24.2</ele>
        <time>2012-02-13T18:28:27Z</time>
      </trkpt>
      <trkpt lat="59.9898679156" lon="23.4035122782">
        <ele>24</ele>
        <time>2012-02-13T18:28:35Z</time>
      </trkpt>
      <trkpt lat="59.9899063047" lon="23.403554942">
        <ele>23.8</ele>
        <time>2012-02-13T18:28:40Z</time>
      </trkpt>
      <trkpt lat="59.9899581887" lon="23.4036048982">
        <ele>23.8</ele>
        <time>2012-02-13T18:28:47Z</time>
      </trkpt>
      <trkpt lat="59.989995991" lon="23.4036268588">
        <ele>23.8</ele>
        <time>2012-02-13T18:28:52Z</time>
      </trkpt>
      <trkpt lat="59.9900649741" lon="23.4036804191">
        <ele>24.6</ele>
        <time>2012-02-13T18:28:59Z</time>
      </trkpt>
      <trkpt lat="59.9901601924" lon="23.4037447083">
        <ele>25.4</ele>
        <time>2012-02-13T18:29:05Z</time>
      </trkpt>
      <trkpt lat="59.9903230528" lon="23.4038602947">
        <ele>26.6</ele>
        <time>2012-02-13T18:29:11Z</time>
      </trkpt>
      <trkpt lat="59.9905014196" lon="23.4039553454">
        <ele>27</ele>
        <time>2012-02-13T18:29:15Z</time>
      </trkpt>
      <trkpt lat="59.9907123082" lon="23.4039924772">
        <ele>27.4</ele>
        <time>2012-02-13T18:29:20Z</time>
      </trkpt>
      <trkpt lat="59.9907622643" lon="23.4039937345">
        <ele>27.4</ele>
        <time>2012-02-13T18:29:21Z</time>
      </trkpt>
      <trkpt lat="59.9909204308" lon="23.4042753664">
        <ele>27.6</ele>
        <time>2012-02-13T18:29:25Z</time>
      </trkpt>
      <trkpt lat="59.99093468" lon="23.4043768712">
        <ele>27.6</ele>
        <time>2012-02-13T18:29:26Z</time>
      </trkpt>
      <trkpt lat="59.9909712251" lon="23.4049203536">
        <ele>27.6</ele>
        <time>2012-02-13T18:29:31Z</time>
      </trkpt>
      <trkpt lat="59.9909483425" lon="23.4054640036">
        <ele>26.6</ele>
        <time>2012-02-13T18:29:39Z</time>
      </trkpt>
      <trkpt lat="59.9909466661" lon="23.405510104">
        <ele>26.6</ele>
        <time>2012-02-13T18:29:40Z</time>
      </trkpt>
      <trkpt lat="59.9909848038" lon="23.4058247606">
        <ele>25.8</ele>
        <time>2012-02-13T18:29:46Z</time>
      </trkpt>
      <trkpt lat="59.9910895775" lon="23.4060237469">
        <ele>25</ele>
        <time>2012-02-13T18:29:50Z</time>
      </trkpt>
      <trkpt lat="59.9911878134" lon="23.40602601">
        <ele>24.6</ele>
        <time>2012-02-13T18:29:54Z</time>
      </trkpt>
      <trkpt lat="59.991266268" lon="23.4059879562">
        <ele>24</ele>
        <time>2012-02-13T18:29:57Z</time>
      </trkpt>
      <trkpt lat="59.9913382685" lon="23.405941269">
        <ele>23.4</ele>
        <time>2012-02-13T18:30:00Z</time>
      </trkpt>
      <trkpt lat="59.9914536872" lon="23.4058693523">
        <ele>22.8</ele>
        <time>2012-02-13T18:30:05Z</time>
      </trkpt>
      <trkpt lat="59.9915592992" lon="23.4058256826">
        <ele>22.4</ele>
        <time>2012-02-13T18:30:10Z</time>
      </trkpt>
      <trkpt lat="59.9916729578" lon="23.4057783248">
        <ele>21.4</ele>
        <time>2012-02-13T18:30:15Z</time>
      </trkpt>
      <trkpt lat="59.9917824254" lon="23.4057297098">
        <ele>20.8</ele>
        <time>2012-02-13T18:30:19Z</time>
      </trkpt>
      <trkpt lat="59.9919239957" lon="23.4056025564">
        <ele>20.4</ele>
        <time>2012-02-13T18:30:25Z</time>
      </trkpt>
      <trkpt lat="59.9920307811" lon="23.4053885665">
        <ele>20</ele>
        <time>2012-02-13T18:30:31Z</time>
      </trkpt>
      <trkpt lat="59.9921396619" lon="23.4051113771">
        <ele>20</ele>
        <time>2012-02-13T18:30:38Z</time>
      </trkpt>
      <trkpt lat="59.9922327849" lon="23.4050037535">
        <ele>19.8</ele>
        <time>2012-02-13T18:30:42Z</time>
      </trkpt>
      <trkpt lat="59.9924220482" lon="23.4048510352">
        <ele>19.8</ele>
        <time>2012-02-13T18:30:48Z</time>
      </trkpt>
      <trkpt lat="59.9924860859" lon="23.4046823076">
        <ele>19.6</ele>
        <time>2012-02-13T18:30:52Z</time>
      </trkpt>
      <trkpt lat="59.992580969" lon="23.4044629533">
        <ele>18.8</ele>
        <time>2012-02-13T18:30:57Z</time>
      </trkpt>
      <trkpt lat="59.9926970583" lon="23.4043307707">
        <ele>18.4</ele>
        <time>2012-02-13T18:31:01Z</time>
      </trkpt>
      <trkpt lat="59.992854638" lon="23.4042369773">
        <ele>18.2</ele>
        <time>2012-02-13T18:31:06Z</time>
      </trkpt>
      <trkpt lat="59.9928920213" lon="23.4041658987">
        <ele>18.2</ele>
        <time>2012-02-13T18:31:08Z</time>
      </trkpt>
      <trkpt lat="59.9929477609" lon="23.4038763041">
        <ele>18</ele>
        <time>2012-02-13T18:31:13Z</time>
      </trkpt>
      <trkpt lat="59.9930268022" lon="23.4034668483">
        <ele>17.8</ele>
        <time>2012-02-13T18:31:17Z</time>
      </trkpt>
      <trkpt lat="59.9930953662" lon="23.4031036606">
        <ele>17.8</ele>
        <time>2012-02-13T18:31:20Z</time>
      </trkpt>
      <trkpt lat="59.9931183326" lon="23.4028978849">
        <ele>17.8</ele>
        <time>2012-02-13T18:31:22Z</time>
      </trkpt>
      <trkpt lat="59.9931162371" lon="23.4026227071">
        <ele>17.8</ele>
        <time>2012-02-13T18:31:26Z</time>
      </trkpt>
      <trkpt lat="59.9930988866" lon="23.4023927916">
        <ele>17.8</ele>
        <time>2012-02-13T18:31:33Z</time>
      </trkpt>
      <trkpt lat="59.9930719807" lon="23.4020721839">
        <ele>17.8</ele>
        <time>2012-02-13T18:31:40Z</time>
      </trkpt>
      <trkpt lat="59.9930459968" lon="23.4018443639">
        <ele>17.8</ele>
        <time>2012-02-13T18:31:45Z</time>
      </trkpt>
      <trkpt lat="59.9930071886" lon="23.4015588764">
        <ele>17.8</ele>
        <time>2012-02-13T18:31:51Z</time>
      </trkpt>
      <trkpt lat="59.9930002316" lon="23.4012032324">
        <ele>18.8</ele>
        <time>2012-02-13T18:31:58Z</time>
      </trkpt>
      <trkpt lat="59.992994951" lon="23.4009309883">
        <ele>19.2</ele>
        <time>2012-02-13T18:32:03Z</time>
      </trkpt>
      <trkpt lat="59.9929731581" lon="23.4006510328">
        <ele>19.4</ele>
        <time>2012-02-13T18:32:07Z</time>
      </trkpt>
      <trkpt lat="59.9929750859" lon="23.4003983185">
        <ele>19.6</ele>
        <time>2012-02-13T18:32:12Z</time>
      </trkpt>
      <trkpt lat="59.9929444082" lon="23.4001337857">
        <ele>20</ele>
        <time>2012-02-13T18:32:18Z</time>
      </trkpt>
      <trkpt lat="59.9928470105" lon="23.3999355538">
        <ele>21</ele>
        <time>2012-02-13T18:32:24Z</time>
      </trkpt>
      <trkpt lat="59.9926659614" lon="23.3997540857">
        <ele>21.4</ele>
        <time>2012-02-13T18:32:31Z</time>
      </trkpt>
      <trkpt lat="59.9924964794" lon="23.3996621362">
        <ele>21.6</ele>
        <time>2012-02-13T18:32:36Z</time>
      </trkpt>
      <trkpt lat="59.9924445116" lon="23.3996402595">
        <ele>21.6</ele>
        <time>2012-02-13T18:32:37Z</time>
      </trkpt>
      <trkpt lat="59.9922066333" lon="23.3992949252">
        <ele>21.4</ele>
        <time>2012-02-13T18:32:42Z</time>
      </trkpt>
      <trkpt lat="59.992040085" lon="23.3990080128">
        <ele>21</ele>
        <time>2012-02-13T18:32:45Z</time>
      </trkpt>
      <trkpt lat="59.9919949904" lon="23.3989362637">
        <ele>20.8</ele>
        <time>2012-02-13T18:32:46Z</time>
      </trkpt>
      <trkpt lat="59.9917748817" lon="23.3987516943">
        <ele>19.8</ele>
        <time>2012-02-13T18:32:50Z</time>
      </trkpt>
      <trkpt lat="59.9916588762" lon="23.3987713917">
        <ele>19.2</ele>
        <time>2012-02-13T18:32:53Z</time>
      </trkpt>
      <trkpt lat="59.9915598021" lon="23.398843979">
        <ele>18.8</ele>
        <time>2012-02-13T18:32:56Z</time>
      </trkpt>
      <trkpt lat="59.9914421202" lon="23.3989128782">
        <ele>18.2</ele>
        <time>2012-02-13T18:33:00Z</time>
      </trkpt>
      <trkpt lat="59.9913311439" lon="23.3989841243">
        <ele>18</ele>
        <time>2012-02-13T18:33:04Z</time>
      </trkpt>
      <trkpt lat="59.9912040743" lon="23.3990905745">
        <ele>17.8</ele>
        <time>2012-02-13T18:33:08Z</time>
      </trkpt>
      <trkpt lat="59.9910784296" lon="23.3991743935">
        <ele>17.6</ele>
        <time>2012-02-13T18:33:13Z</time>
      </trkpt>
      <trkpt lat="59.9909837141" lon="23.3991657601">
        <ele>17.6</ele>
        <time>2012-02-13T18:33:17Z</time>
      </trkpt>
      <trkpt lat="59.9909348476" lon="23.3991290474">
        <ele>17.6</ele>
        <time>2012-02-13T18:33:19Z</time>
      </trkpt>
      <trkpt lat="59.9908449937" lon="23.3990303924">
        <ele>17.6</ele>
        <time>2012-02-13T18:33:25Z</time>
      </trkpt>
      <trkpt lat="59.9908338457" lon="23.3990096053">
        <ele>17.6</ele>
        <time>2012-02-13T18:33:26Z</time>
      </trkpt>
      <trkpt lat="59.9908047606" lon="23.3989432207">
        <ele>17.4</ele>
        <time>2012-02-13T18:33:28Z</time>
      </trkpt>
      <trkpt lat="59.9907234561" lon="23.3987786002">
        <ele>17.4</ele>
        <time>2012-02-13T18:33:34Z</time>
      </trkpt>
      <trkpt lat="59.9906902638" lon="23.398730488">
        <ele>17.4</ele>
        <time>2012-02-13T18:33:36Z</time>
      </trkpt>
      <trkpt lat="59.9905394734" lon="23.3986071065">
        <ele>17.4</ele>
        <time>2012-02-13T18:33:44Z</time>
      </trkpt>
      <trkpt lat="59.9904070394" lon="23.3986958708">
        <ele>17.4</ele>
        <time>2012-02-13T18:33:49Z</time>
      </trkpt>
      <trkpt lat="59.9903005054" lon="23.3988081044">
        <ele>17.4</ele>
        <time>2012-02-13T18:33:54Z</time>
      </trkpt>
      <trkpt lat="59.9902139204" lon="23.3988901632">
        <ele>17.4</ele>
        <time>2012-02-13T18:33:58Z</time>
      </trkpt>
      <trkpt lat="59.9901049557" lon="23.3989915004">
        <ele>17.4</ele>
        <time>2012-02-13T18:34:03Z</time>
      </trkpt>
      <trkpt lat="59.989986268" lon="23.3991663468">
        <ele>17.6</ele>
        <time>2012-02-13T18:34:09Z</time>
      </trkpt>
      <trkpt lat="59.989888116" lon="23.399316299">
        <ele>18.4</ele>
        <time>2012-02-13T18:34:14Z</time>
      </trkpt>
      <trkpt lat="59.9897657402" lon="23.399499695">
        <ele>19</ele>
        <time>2012-02-13T18:34:20Z</time>
      </trkpt>
      <trkpt lat="59.9895538458" lon="23.3998020301">
        <ele>19.2</ele>
        <time>2012-02-13T18:34:30Z</time>
      </trkpt>
      <trkpt lat="59.9893909017" lon="23.4001646311">
        <ele>20.2</ele>
        <time>2012-02-13T18:34:40Z</time>
      </trkpt>
      <trkpt lat="59.9893250199" lon="23.4004252244">
        <ele>20.8</ele>
        <time>2012-02-13T18:34:46Z</time>
      </trkpt>
      <trkpt lat="59.9892899836" lon="23.4007263861">
        <ele>21</ele>
        <time>2012-02-13T18:34:50Z</time>
      </trkpt>
      <trkpt lat="59.9893483216" lon="23.401063087">
        <ele>21.2</ele>
        <time>2012-02-13T18:34:53Z</time>
      </trkpt>
      <trkpt lat="59.9894473118" lon="23.4014574554">
        <ele>21.4</ele>
        <time>2012-02-13T18:34:57Z</time>
      </trkpt>
      <trkpt lat="59.9894628184" lon="23.4015167154">
        <ele>21.4</ele>
        <time>2012-02-13T18:34:58Z</time>
      </trkpt>
      <trkpt lat="59.9894786602" lon="23.4015825972">
        <ele>21.4</ele>
        <time>2012-02-13T18:35:01Z</time>
      </trkpt>
      <trkpt lat="59.9894823482" lon="23.4016121853">
        <ele>21.4</ele>
        <time>2012-02-13T18:35:03Z</time>
      </trkpt>
      <trkpt lat="59.9894836055" lon="23.4016644883">
        <ele>21.4</ele>
        <time>2012-02-13T18:35:06Z</time>
      </trkpt>
      <trkpt lat="59.989450497" lon="23.4018759637">
        <ele>21.6</ele>
        <time>2012-02-13T18:35:13Z</time>
      </trkpt>
      <trkpt lat="59.9893338209" lon="23.4021719285">
        <ele>21.6</ele>
        <time>2012-02-13T18:35:19Z</time>
      </trkpt>
      <trkpt lat="59.9892059969" lon="23.4025165085">
        <ele>21.6</ele>
        <time>2012-02-13T18:35:23Z</time>
      </trkpt>
      <trkpt lat="59.9889672804" lon="23.4034110248">
        <ele>21.6</ele>
        <time>2012-02-13T18:35:30Z</time>
      </trkpt>
      <trkpt lat="59.9889366865" lon="23.403541531">
        <ele>21.6</ele>
        <time>2012-02-13T18:35:31Z</time>
      </trkpt>
      <trkpt lat="59.9889360998" lon="23.4037048104">
        <ele>21.6</ele>
        <time>2012-02-13T18:35:33Z</time>
      </trkpt>
      <trkpt lat="59.9890350062" lon="23.4036583747">
        <ele>21.6</ele>
        <time>2012-02-13T18:35:36Z</time>
      </trkpt>
      <trkpt lat="59.9892512592" lon="23.4033389405">
        <ele>21.6</ele>
        <time>2012-02-13T18:35:41Z</time>
      </trkpt>
      <trkpt lat="59.98931756" lon="23.4032534451">
        <ele>21.6</ele>
        <time>2012-02-13T18:35:43Z</time>
      </trkpt>
      <trkpt lat="59.9894450487" lon="23.4031508506">
        <ele>20.8</ele>
        <time>2012-02-13T18:35:47Z</time>
      </trkpt>
      <trkpt lat="59.9896057298" lon="23.4032639225">
        <ele>20.4</ele>
        <time>2012-02-13T18:35:51Z</time>
      </trkpt>
      <trkpt lat="59.9897049715" lon="23.4033479091">
        <ele>20.2</ele>
        <time>2012-02-13T18:35:54Z</time>
      </trkpt>
      <trkpt lat="59.9897431091" lon="23.4034038164">
        <ele>20</ele>
        <time>2012-02-13T18:35:56Z</time>
      </trkpt>
      <trkpt lat="59.9898078174" lon="23.4034710392">
        <ele>19</ele>
        <time>2012-02-13T18:36:02Z</time>
      </trkpt>
      <trkpt lat="59.9898719389" lon="23.4035500805">
        <ele>18.2</ele>
        <time>2012-02-13T18:36:10Z</time>
      </trkpt>
      <trkpt lat="59.9899183746" lon="23.4035895593">
        <ele>17.8</ele>
        <time>2012-02-13T18:36:16Z</time>
      </trkpt>
      <trkpt lat="59.9899447776" lon="23.4036089215">
        <ele>17.8</ele>
        <time>2012-02-13T18:36:19Z</time>
      </trkpt>
      <trkpt lat="59.9899999305" lon="23.4036645773">
        <ele>18.6</ele>
        <time>2012-02-13T18:36:26Z</time>
      </trkpt>
      <trkpt lat="59.9900576818" lon="23.4036971829">
        <ele>19</ele>
        <time>2012-02-13T18:36:31Z</time>
      </trkpt>
      <trkpt lat="59.9901635452" lon="23.4038171279">
        <ele>19.2</ele>
        <time>2012-02-13T18:36:37Z</time>
      </trkpt>
      <trkpt lat="59.9902723423" lon="23.4039109213">
        <ele>19.4</ele>
        <time>2012-02-13T18:36:41Z</time>
      </trkpt>
      <trkpt lat="59.9903114857" lon="23.4039327143">
        <ele>19.4</ele>
        <time>2012-02-13T18:36:42Z</time>
      </trkpt>
      <trkpt lat="59.9905209494" lon="23.4039973387">
        <ele>19.4</ele>
        <time>2012-02-13T18:36:47Z</time>
      </trkpt>
      <trkpt lat="59.9906403915" lon="23.4039938183">
        <ele>19.4</ele>
        <time>2012-02-13T18:36:50Z</time>
      </trkpt>
      <trkpt lat="59.9908211891" lon="23.4041572654">
        <ele>18.6</ele>
        <time>2012-02-13T18:36:54Z</time>
      </trkpt>
      <trkpt lat="59.9908548843" lon="23.4043381468">
        <ele>18.4</ele>
        <time>2012-02-13T18:36:56Z</time>
      </trkpt>
      <trkpt lat="59.990876342" lon="23.4045516338">
        <ele>17.8</ele>
        <time>2012-02-13T18:36:58Z</time>
      </trkpt>
      <trkpt lat="59.9909184191" lon="23.4049306633">
        <ele>16.8</ele>
        <time>2012-02-13T18:37:02Z</time>
      </trkpt>
      <trkpt lat="59.9909216881" lon="23.4051800248">
        <ele>16.4</ele>
        <time>2012-02-13T18:37:05Z</time>
      </trkpt>
      <trkpt lat="59.990899476" lon="23.405500884">
        <ele>14.6</ele>
        <time>2012-02-13T18:37:12Z</time>
      </trkpt>
      <trkpt lat="59.9909014877" lon="23.4055614013">
        <ele>14.4</ele>
        <time>2012-02-13T18:37:14Z</time>
      </trkpt>
      <trkpt lat="59.9909002304" lon="23.4055959347">
        <ele>13.4</ele>
        <time>2012-02-13T18:37:26Z</time>
      </trkpt>
      <trkpt lat="59.9909112945" lon="23.4057401872">
        <ele>13</ele>
        <time>2012-02-13T18:37:43Z</time>
      </trkpt>
      <trkpt lat="59.9910066805" lon="23.4059879562">
        <ele>13</ele>
        <time>2012-02-13T18:37:47Z</time>
      </trkpt>
      <trkpt lat="59.9910424712" lon="23.4060272673">
        <ele>13</ele>
        <time>2012-02-13T18:37:48Z</time>
      </trkpt>
      <trkpt lat="59.9911501786" lon="23.4060281055">
        <ele>13</ele>
        <time>2012-02-13T18:37:52Z</time>
      </trkpt>
      <trkpt lat="59.9911775036" lon="23.406014443">
        <ele>13</ele>
        <time>2012-02-13T18:37:53Z</time>
      </trkpt>
      <trkpt lat="59.9912938444" lon="23.4059427777">
        <ele>13</ele>
        <time>2012-02-13T18:37:58Z</time>
      </trkpt>
      <trkpt lat="59.9914189862" lon="23.4058632335">
        <ele>13</ele>
        <time>2012-02-13T18:38:03Z</time>
      </trkpt>
      <trkpt lat="59.9915649151" lon="23.405806488">
        <ele>13</ele>
        <time>2012-02-13T18:38:09Z</time>
      </trkpt>
      <trkpt lat="59.9917605486" lon="23.4057406063">
        <ele>13</ele>
        <time>2012-02-13T18:38:16Z</time>
      </trkpt>
      <trkpt lat="59.9918644003" lon="23.4056653368">
        <ele>13</ele>
        <time>2012-02-13T18:38:20Z</time>
      </trkpt>
      <trkpt lat="59.9919626362" lon="23.4055256944">
        <ele>12.8</ele>
        <time>2012-02-13T18:38:25Z</time>
      </trkpt>
      <trkpt lat="59.9921366445" lon="23.4051133049">
        <ele>11.6</ele>
        <time>2012-02-13T18:38:36Z</time>
      </trkpt>
      <trkpt lat="59.9922875187" lon="23.4049608381">
        <ele>11.2</ele>
        <time>2012-02-13T18:38:42Z</time>
      </trkpt>
      <trkpt lat="59.9924235569" lon="23.4048496103">
        <ele>11.2</ele>
        <time>2012-02-13T18:38:47Z</time>
      </trkpt>
      <trkpt lat="59.9925022629" lon="23.4046200301">
        <ele>11</ele>
        <time>2012-02-13T18:38:52Z</time>
      </trkpt>
      <trkpt lat="59.99258977" lon="23.404451051">
        <ele>11</ele>
        <time>2012-02-13T18:38:56Z</time>
      </trkpt>
      <trkpt lat="59.992691191" lon="23.4043430921">
        <ele>11</ele>
        <time>2012-02-13T18:39:00Z</time>
      </trkpt>
      <trkpt lat="59.9928268101" lon="23.4042327025">
        <ele>11</ele>
        <time>2012-02-13T18:39:05Z</time>
      </trkpt>
      <trkpt lat="59.9928961284" lon="23.4040057206">
        <ele>11</ele>
        <time>2012-02-13T18:39:10Z</time>
      </trkpt>
      <trkpt lat="59.9929620102" lon="23.403617471">
        <ele>10.4</ele>
        <time>2012-02-13T18:39:15Z</time>
      </trkpt>
      <trkpt lat="59.9930311608" lon="23.4032710471">
        <ele>10</ele>
        <time>2012-02-13T18:39:18Z</time>
      </trkpt>
      <trkpt lat="59.9930775966" lon="23.4028594958">
        <ele>9.6</ele>
        <time>2012-02-13T18:39:22Z</time>
      </trkpt>
      <trkpt lat="59.993076004" lon="23.4028013254">
        <ele>9.6</ele>
        <time>2012-02-13T18:39:23Z</time>
      </trkpt>
      <trkpt lat="59.9930682088" lon="23.4025401454">
        <ele>9</ele>
        <time>2012-02-13T18:39:27Z</time>
      </trkpt>
      <trkpt lat="59.9930545463" lon="23.4023809731">
        <ele>8.4</ele>
        <time>2012-02-13T18:39:30Z</time>
      </trkpt>
      <trkpt lat="59.9930180851" lon="23.4019925559">
        <ele>7.6</ele>
        <time>2012-02-13T18:39:38Z</time>
      </trkpt>
      <trkpt lat="59.9930053446" lon="23.4018663245">
        <ele>6.8</ele>
        <time>2012-02-13T18:39:41Z</time>
      </trkpt>
      <trkpt lat="59.9929753374" lon="23.4016607165">
        <ele>6</ele>
        <time>2012-02-13T18:39:46Z</time>
      </trkpt>
      <trkpt lat="59.9929558914" lon="23.4013328165">
        <ele>5.2</ele>
        <time>2012-02-13T18:39:53Z</time>
      </trkpt>
      <trkpt lat="59.9929576516" lon="23.4010557109">
        <ele>5</ele>
        <time>2012-02-13T18:39:59Z</time>
      </trkpt>
      <trkpt lat="59.9929513651" lon="23.4008067685">
        <ele>5</ele>
        <time>2012-02-13T18:40:03Z</time>
      </trkpt>
      <trkpt lat="59.992940301" lon="23.4005580775">
        <ele>4.2</ele>
        <time>2012-02-13T18:40:08Z</time>
      </trkpt>
      <trkpt lat="59.9929340146" lon="23.4002994959">
        <ele>3.4</ele>
        <time>2012-02-13T18:40:14Z</time>
      </trkpt>
      <trkpt lat="59.9929030854" lon="23.4001232246">
        <ele>3.2</ele>
        <time>2012-02-13T18:40:19Z</time>
      </trkpt>
      <trkpt lat="59.9928294923" lon="23.3999722665">
        <ele>3</ele>
        <time>2012-02-13T18:40:24Z</time>
      </trkpt>
      <trkpt lat="59.9927343577" lon="23.3998468733">
        <ele>2.8</ele>
        <time>2012-02-13T18:40:28Z</time>
      </trkpt>
      <trkpt lat="59.9925042746" lon="23.3996929816">
        <ele>2.8</ele>
        <time>2012-02-13T18:40:37Z</time>
      </trkpt>
      <trkpt lat="59.9924734292" lon="23.3996671654">
        <ele>2.6</ele>
        <time>2012-02-13T18:40:38Z</time>
      </trkpt>
      <trkpt lat="59.9922825733" lon="23.3994551033">
        <ele>2.6</ele>
        <time>2012-02-13T18:40:43Z</time>
      </trkpt>
      <trkpt lat="59.9921006861" lon="23.3991410335">
        <ele>2.6</ele>
        <time>2012-02-13T18:40:47Z</time>
      </trkpt>
      <trkpt lat="59.9919440284" lon="23.3988965335">
        <ele>2.6</ele>
        <time>2012-02-13T18:40:50Z</time>
      </trkpt>
      <trkpt lat="59.9918945752" lon="23.3988347589">
        <ele>2.6</ele>
        <time>2012-02-13T18:40:51Z</time>
      </trkpt>
      <trkpt lat="59.991670527" lon="23.3987279735">
        <ele>2.6</ele>
        <time>2012-02-13T18:40:56Z</time>
      </trkpt>
      <trkpt lat="59.9916425315" lon="23.3987407978">
        <ele>2.6</ele>
        <time>2012-02-13T18:40:57Z</time>
      </trkpt>
      <trkpt lat="59.9915864565" lon="23.3987633451">
        <ele>2.6</ele>
        <time>2012-02-13T18:40:59Z</time>
      </trkpt>
      <trkpt lat="59.9914636617" lon="23.3988255388">
        <ele>2.6</ele>
        <time>2012-02-13T18:41:04Z</time>
      </trkpt>
      <trkpt lat="59.9912969457" lon="23.3989266245">
        <ele>2.6</ele>
        <time>2012-02-13T18:41:10Z</time>
      </trkpt>
      <trkpt lat="59.9911548725" lon="23.3990253633">
        <ele>2.6</ele>
        <time>2012-02-13T18:41:15Z</time>
      </trkpt>
      <trkpt lat="59.9910594027" lon="23.3990882275">
        <ele>2.6</ele>
        <time>2012-02-13T18:41:19Z</time>
      </trkpt>
      <trkpt lat="59.9909532878" lon="23.3991007166">
        <ele>2.8</ele>
        <time>2012-02-13T18:41:23Z</time>
      </trkpt>
      <trkpt lat="59.9906833906" lon="23.398755047">
        <ele>4.4</ele>
        <time>2012-02-13T18:41:39Z</time>
      </trkpt>
      <trkpt lat="59.9906178442" lon="23.3986863993">
        <ele>4.4</ele>
        <time>2012-02-13T18:41:43Z</time>
      </trkpt>
      <trkpt lat="59.9905144954" lon="23.3986416399">
        <ele>5</ele>
        <time>2012-02-13T18:41:49Z</time>
      </trkpt>
      <trkpt lat="59.9903751882" lon="23.3987001456">
        <ele>5.8</ele>
        <time>2012-02-13T18:41:55Z</time>
      </trkpt>
      <trkpt lat="59.9902991643" lon="23.3987840484">
        <ele>6</ele>
        <time>2012-02-13T18:41:58Z</time>
      </trkpt>
      <trkpt lat="59.9902043651" lon="23.398876836">
        <ele>7</ele>
        <time>2012-02-13T18:42:02Z</time>
      </trkpt>
      <trkpt lat="59.9900836657" lon="23.3989865551">
        <ele>8</ele>
        <time>2012-02-13T18:42:07Z</time>
      </trkpt>
      <trkpt lat="59.9900031156" lon="23.3991102719">
        <ele>9</ele>
        <time>2012-02-13T18:42:11Z</time>
      </trkpt>
      <trkpt lat="59.9899208054" lon="23.3992304684">
        <ele>10</ele>
        <time>2012-02-13T18:42:15Z</time>
      </trkpt>
      <trkpt lat="59.9898572706" lon="23.3993608907">
        <ele>11</ele>
        <time>2012-02-13T18:42:19Z</time>
      </trkpt>
      <trkpt lat="59.9897247527" lon="23.3995259304">
        <ele>12</ele>
        <time>2012-02-13T18:42:25Z</time>
      </trkpt>
      <trkpt lat="59.9895634012" lon="23.3997632219">
        <ele>13.8</ele>
        <time>2012-02-13T18:42:32Z</time>
      </trkpt>
      <trkpt lat="59.989423172" lon="23.3999819895">
        <ele>14.8</ele>
        <time>2012-02-13T18:42:39Z</time>
      </trkpt>
      <trkpt lat="59.9893647501" lon="23.4002040261">
        <ele>15.8</ele>
        <time>2012-02-13T18:42:44Z</time>
      </trkpt>
      <trkpt lat="59.9893360002" lon="23.4003399805">
        <ele>16.2</ele>
        <time>2012-02-13T18:42:47Z</time>
      </trkpt>
      <trkpt lat="59.9892959347" lon="23.4006278987">
        <ele>16.6</ele>
        <time>2012-02-13T18:42:51Z</time>
      </trkpt>
      <trkpt lat="59.9893388501" lon="23.4009811958">
        <ele>16.8</ele>
        <time>2012-02-13T18:42:54Z</time>
      </trkpt>
      <trkpt lat="59.9893725453" lon="23.4011027334">
        <ele>16.8</ele>
        <time>2012-02-13T18:42:55Z</time>
      </trkpt>
      <trkpt lat="59.9894729605" lon="23.4015396818">
        <ele>17</ele>
        <time>2012-02-13T18:43:00Z</time>
      </trkpt>
      <trkpt lat="59.9894779058" lon="23.4015755564">
        <ele>17</ele>
        <time>2012-02-13T18:43:01Z</time>
      </trkpt>
      <trkpt lat="59.989483354" lon="23.401597936">
        <ele>17</ele>
        <time>2012-02-13T18:43:04Z</time>
      </trkpt>
      <trkpt lat="59.9894835217" lon="23.4016816712">
        <ele>17.4</ele>
        <time>2012-02-13T18:43:09Z</time>
      </trkpt>
      <trkpt lat="59.989474553" lon="23.4017682562">
        <ele>17.8</ele>
        <time>2012-02-13T18:43:12Z</time>
      </trkpt>
      <trkpt lat="59.989429626" lon="23.4019374868">
        <ele>18.4</ele>
        <time>2012-02-13T18:43:17Z</time>
      </trkpt>
      <trkpt lat="59.9893545242" lon="23.4021616188">
        <ele>18.6</ele>
        <time>2012-02-13T18:43:21Z</time>
      </trkpt>
      <trkpt lat="59.9892132892" lon="23.4025000799">
        <ele>18.8</ele>
        <time>2012-02-13T18:43:25Z</time>
      </trkpt>
      <trkpt lat="59.9890909973" lon="23.4029455779">
        <ele>19</ele>
        <time>2012-02-13T18:43:29Z</time>
      </trkpt>
      <trkpt lat="59.988985553" lon="23.4033484959">
        <ele>18.4</ele>
        <time>2012-02-13T18:43:32Z</time>
      </trkpt>
      <trkpt lat="59.9889409613" lon="23.4034860428">
        <ele>18.4</ele>
        <time>2012-02-13T18:43:33Z</time>
      </trkpt>
      <trkpt lat="59.9889605749" lon="23.4037175509">
        <ele>18</ele>
        <time>2012-02-13T18:43:36Z</time>
      </trkpt>
      <trkpt lat="59.9890262052" lon="23.4036520045">
        <ele>17.8</ele>
        <time>2012-02-13T18:43:38Z</time>
      </trkpt>
      <trkpt lat="59.9890961941" lon="23.4035323109">
        <ele>17.2</ele>
        <time>2012-02-13T18:43:40Z</time>
      </trkpt>
      <trkpt lat="59.9892177316" lon="23.4033240207">
        <ele>16.6</ele>
        <time>2012-02-13T18:43:43Z</time>
      </trkpt>
      <trkpt lat="59.9893051548" lon="23.4031723921">
        <ele>16.2</ele>
        <time>2012-02-13T18:43:46Z</time>
      </trkpt>
      <trkpt lat="59.989506991" lon="23.4032184088">
        <ele>14.6</ele>
        <time>2012-02-13T18:43:52Z</time>
      </trkpt>
      <trkpt lat="59.9895762255" lon="23.4032742322">
        <ele>14.4</ele>
        <time>2012-02-13T18:43:54Z</time>
      </trkpt>
      <trkpt lat="59.9897363198" lon="23.403459556">
        <ele>12.8</ele>
        <time>2012-02-13T18:44:00Z</time>
      </trkpt>
      <trkpt lat="59.9897640638" lon="23.403491072">
        <ele>12</ele>
        <time>2012-02-13T18:44:04Z</time>
      </trkpt>
      <trkpt lat="59.9898044646" lon="23.403534574">
        <ele>11.4</ele>
        <time>2012-02-13T18:44:10Z</time>
      </trkpt>
      <trkpt lat="59.9898412611" lon="23.4035769026">
        <ele>11</ele>
        <time>2012-02-13T18:44:16Z</time>
      </trkpt>
      <trkpt lat="59.989875124" lon="23.4036089215">
        <ele>10.8</ele>
        <time>2012-02-13T18:44:21Z</time>
      </trkpt>
      <trkpt lat="59.9899352222" lon="23.40364664">
        <ele>10.6</ele>
        <time>2012-02-13T18:44:29Z</time>
      </trkpt>
      <trkpt lat="59.9899860166" lon="23.4036803353">
        <ele>10.6</ele>
        <time>2012-02-13T18:44:35Z</time>
      </trkpt>
      <trkpt lat="59.9900448575" lon="23.4037315487">
        <ele>11.2</ele>
        <time>2012-02-13T18:44:41Z</time>
      </trkpt>
      <trkpt lat="59.9900590229" lon="23.4037390086">
        <ele>11.2</ele>
        <time>2012-02-13T18:44:42Z</time>
      </trkpt>
      <trkpt lat="59.9902154292" lon="23.4038896313">
        <ele>11.8</ele>
        <time>2012-02-13T18:44:48Z</time>
      </trkpt>
      <trkpt lat="59.99041693" lon="23.40399583">
        <ele>12.2</ele>
        <time>2012-02-13T18:44:53Z</time>
      </trkpt>
      <trkpt lat="59.9906095461" lon="23.4040119232">
        <ele>12.2</ele>
        <time>2012-02-13T18:44:58Z</time>
      </trkpt>
      <trkpt lat="59.9906608433" lon="23.4040090734">
        <ele>12.4</ele>
        <time>2012-02-13T18:44:59Z</time>
      </trkpt>
      <trkpt lat="59.9908223625" lon="23.4042565071">
        <ele>12.4</ele>
        <time>2012-02-13T18:45:03Z</time>
      </trkpt>
      <trkpt lat="59.9908713128" lon="23.4045856643">
        <ele>12.4</ele>
        <time>2012-02-13T18:45:06Z</time>
      </trkpt>
      <trkpt lat="59.9908923514" lon="23.4047943736">
        <ele>12.4</ele>
        <time>2012-02-13T18:45:08Z</time>
      </trkpt>
      <trkpt lat="59.990914312" lon="23.4050664501">
        <ele>12.2</ele>
        <time>2012-02-13T18:45:11Z</time>
      </trkpt>
      <trkpt lat="59.990897632" lon="23.4053519376">
        <ele>11.6</ele>
        <time>2012-02-13T18:45:15Z</time>
      </trkpt>
      <trkpt lat="59.9908886634" lon="23.405450844">
        <ele>11.4</ele>
        <time>2012-02-13T18:45:17Z</time>
      </trkpt>
      <trkpt lat="59.9909236997" lon="23.4058203182">
        <ele>10.8</ele>
        <time>2012-02-13T18:45:25Z</time>
      </trkpt>
      <trkpt lat="59.9910213488" lon="23.4060342242">
        <ele>10.6</ele>
        <time>2012-02-13T18:45:30Z</time>
      </trkpt>
      <trkpt lat="59.9910717241" lon="23.4060606272">
        <ele>10.6</ele>
        <time>2012-02-13T18:45:32Z</time>
      </trkpt>
      <trkpt lat="59.9912260348" lon="23.4059534227">
        <ele>10.4</ele>
        <time>2012-02-13T18:45:39Z</time>
      </trkpt>
      <trkpt lat="59.9912524378" lon="23.4059388382">
        <ele>10.2</ele>
        <time>2012-02-13T18:45:40Z</time>
      </trkpt>
      <trkpt lat="59.9913831117" lon="23.405856528">
        <ele>9.4</ele>
        <time>2012-02-13T18:45:46Z</time>
      </trkpt>
      <trkpt lat="59.9915204072" lon="23.4057852818">
        <ele>8.8</ele>
        <time>2012-02-13T18:45:52Z</time>
      </trkpt>
      <trkpt lat="59.9916903083" lon="23.4057304642">
        <ele>8.6</ele>
        <time>2012-02-13T18:45:58Z</time>
      </trkpt>
      <trkpt lat="59.9918209821" lon="23.4056406102">
        <ele>8.6</ele>
        <time>2012-02-13T18:46:03Z</time>
      </trkpt>
      <trkpt lat="59.9919358141" lon="23.4054572981">
        <ele>8.4</ele>
        <time>2012-02-13T18:46:09Z</time>
      </trkpt>
      <trkpt lat="59.9920250814" lon="23.4052331661">
        <ele>8.2</ele>
        <time>2012-02-13T18:46:15Z</time>
      </trkpt>
      <trkpt lat="59.992117869" lon="23.4050591578">
        <ele>7.4</ele>
        <time>2012-02-13T18:46:20Z</time>
      </trkpt>
      <trkpt lat="59.992264217" lon="23.4049082836">
        <ele>6.8</ele>
        <time>2012-02-13T18:46:26Z</time>
      </trkpt>
      <trkpt lat="59.9923908675" lon="23.4048783602">
        <ele>6.6</ele>
        <time>2012-02-13T18:46:31Z</time>
      </trkpt>
      <trkpt lat="59.9925848247" lon="23.4049452478">
        <ele>5.4</ele>
        <time>2012-02-13T18:46:37Z</time>
      </trkpt>
      <trkpt lat="59.9927741718" lon="23.4049562281">
        <ele>5</ele>
        <time>2012-02-13T18:46:41Z</time>
      </trkpt>
      <trkpt lat="59.9928358626" lon="23.4049424818">
        <ele>4.8</ele>
        <time>2012-02-13T18:46:42Z</time>
      </trkpt>
      <trkpt lat="59.993091762" lon="23.4047693955">
        <ele>3.8</ele>
        <time>2012-02-13T18:46:46Z</time>
      </trkpt>
      <trkpt lat="59.9932623336" lon="23.4044132486">
        <ele>3.4</ele>
        <time>2012-02-13T18:46:49Z</time>
      </trkpt>
      <trkpt lat="59.9933182409" lon="23.4041853447">
        <ele>2.8</ele>
        <time>2012-02-13T18:46:51Z</time>
      </trkpt>
      <trkpt lat="59.9933526905" lon="23.403993986">
        <ele>2.2</ele>
        <time>2012-02-13T18:46:53Z</time>
      </trkpt>
      <trkpt lat="59.9933676103" lon="23.4036958418">
        <ele>1.4</ele>
        <time>2012-02-13T18:46:57Z</time>
      </trkpt>
      <trkpt lat="59.993375154" lon="23.4036461371">
        <ele>1.4</ele>
        <time>2012-02-13T18:46:58Z</time>
      </trkpt>
      <trkpt lat="59.9933805184" lon="23.4035893078">
        <ele>1.2</ele>
        <time>2012-02-13T18:46:59Z</time>
      </trkpt>
      <trkpt lat="59.9934022275" lon="23.4034089294">
        <ele>0.8</ele>
        <time>2012-02-13T18:47:02Z</time>
      </trkpt>
      <trkpt lat="59.9934563746" lon="23.4031122939">
        <ele>0.4</ele>
        <time>2012-02-13T18:47:08Z</time>
      </trkpt>
      <trkpt lat="59.9935148803" lon="23.4028059355">
        <ele>0.2</ele>
        <time>2012-02-13T18:47:14Z</time>
      </trkpt>
      <trkpt lat="59.9935908203" lon="23.4025351163">
        <ele>0</ele>
        <time>2012-02-13T18:47:20Z</time>
      </trkpt>
      <trkpt lat="59.9936535169" lon="23.4022974056">
        <ele>0</ele>
        <time>2012-02-13T18:47:25Z</time>
      </trkpt>
      <trkpt lat="59.9937148724" lon="23.4020206353">
        <ele>0</ele>
        <time>2012-02-13T18:47:31Z</time>
      </trkpt>
      <trkpt lat="59.993773881" lon="23.4018156978">
        <ele>0</ele>
        <time>2012-02-13T18:47:36Z</time>
      </trkpt>
      <trkpt lat="59.9938767269" lon="23.4015823457">
        <ele>0</ele>
        <time>2012-02-13T18:47:42Z</time>
      </trkpt>
      <trkpt lat="59.9939931515" lon="23.4014723752">
        <ele>0</ele>
        <time>2012-02-13T18:47:47Z</time>
      </trkpt>
      <trkpt lat="59.9940835922" lon="23.4013948426">
        <ele>0</ele>
        <time>2012-02-13T18:47:50Z</time>
      </trkpt>
      <trkpt lat="59.9941987595" lon="23.401265929">
        <ele>0</ele>
        <time>2012-02-13T18:47:54Z</time>
      </trkpt>
      <trkpt lat="59.9942332929" lon="23.4012339939">
        <ele>0</ele>
        <time>2012-02-13T18:47:55Z</time>
      </trkpt>
      <trkpt lat="59.9943489631" lon="23.4011354228">
        <ele>0</ele>
        <time>2012-02-13T18:47:59Z</time>
      </trkpt>
      <trkpt lat="59.9944622864" lon="23.4010233568">
        <ele>0</ele>
        <time>2012-02-13T18:48:04Z</time>
      </trkpt>
      <trkpt lat="59.9945645456" lon="23.4009189183">
        <ele>0</ele>
        <time>2012-02-13T18:48:09Z</time>
      </trkpt>
      <trkpt lat="59.9946699899" lon="23.400776426">
        <ele>0</ele>
        <time>2012-02-13T18:48:14Z</time>
      </trkpt>
      <trkpt lat="59.9947548147" lon="23.4006462551">
        <ele>0</ele>
        <time>2012-02-13T18:48:19Z</time>
      </trkpt>
      <trkpt lat="59.99484316" lon="23.4005082052">
        <ele>0</ele>
        <time>2012-02-13T18:48:25Z</time>
      </trkpt>
      <trkpt lat="59.9949079521" lon="23.4003829796">
        <ele>0</ele>
        <time>2012-02-13T18:48:31Z</time>
      </trkpt>
      <trkpt lat="59.9949581596" lon="23.4002639567">
        <ele>0</ele>
        <time>2012-02-13T18:48:35Z</time>
      </trkpt>
      <trkpt lat="59.9950123905" lon="23.4000643836">
        <ele>0.8</ele>
        <time>2012-02-13T18:48:42Z</time>
      </trkpt>
      <trkpt lat="59.995046924" lon="23.3998239907">
        <ele>1.4</ele>
        <time>2012-02-13T18:48:49Z</time>
      </trkpt>
      <trkpt lat="59.9950517016" lon="23.3997579413">
        <ele>1.8</ele>
        <time>2012-02-13T18:48:51Z</time>
      </trkpt>
      <trkpt lat="59.9950394641" lon="23.3996141918">
        <ele>2.6</ele>
        <time>2012-02-13T18:48:55Z</time>
      </trkpt>
      <trkpt lat="59.9949963811" lon="23.3994354897">
        <ele>3.2</ele>
        <time>2012-02-13T18:49:01Z</time>
      </trkpt>
      <trkpt lat="59.9949143223" lon="23.3992948414">
        <ele>3.4</ele>
        <time>2012-02-13T18:49:05Z</time>
      </trkpt>
      <trkpt lat="59.9947680581" lon="23.3991240183">
        <ele>3.6</ele>
        <time>2012-02-13T18:49:10Z</time>
      </trkpt>
      <trkpt lat="59.9946681459" lon="23.3990256147">
        <ele>3.8</ele>
        <time>2012-02-13T18:49:14Z</time>
      </trkpt>
      <trkpt lat="59.9946036053" lon="23.3988879839">
        <ele>3.8</ele>
        <time>2012-02-13T18:49:19Z</time>
      </trkpt>
      <trkpt lat="59.9945603547" lon="23.3986825436">
        <ele>3.8</ele>
        <time>2012-02-13T18:49:24Z</time>
      </trkpt>
      <trkpt lat="59.9945208759" lon="23.3984186814">
        <ele>4</ele>
        <time>2012-02-13T18:49:29Z</time>
      </trkpt>
      <trkpt lat="59.9944430919" lon="23.3982173481">
        <ele>4</ele>
        <time>2012-02-13T18:49:35Z</time>
      </trkpt>
      <trkpt lat="59.9943145135" lon="23.3980745206">
        <ele>4</ele>
        <time>2012-02-13T18:49:39Z</time>
      </trkpt>
      <trkpt lat="59.9941716021" lon="23.3978796414">
        <ele>4</ele>
        <time>2012-02-13T18:49:44Z</time>
      </trkpt>
      <trkpt lat="59.9940907168" lon="23.3977086506">
        <ele>4</ele>
        <time>2012-02-13T18:49:49Z</time>
      </trkpt>
      <trkpt lat="59.9940450355" lon="23.3975156155">
        <ele>4</ele>
        <time>2012-02-13T18:49:54Z</time>
      </trkpt>
      <trkpt lat="59.9939811654" lon="23.3971997855">
        <ele>4</ele>
        <time>2012-02-13T18:49:58Z</time>
      </trkpt>
      <trkpt lat="59.9938802473" lon="23.3967931795">
        <ele>4</ele>
        <time>2012-02-13T18:50:01Z</time>
      </trkpt>
      <trkpt lat="59.9938154552" lon="23.3966298163">
        <ele>4</ele>
        <time>2012-02-13T18:50:02Z</time>
      </trkpt>
      <trkpt lat="59.9936904811" lon="23.3963430715">
        <ele>4</ele>
        <time>2012-02-13T18:50:04Z</time>
      </trkpt>
      <trkpt lat="59.9935259444" lon="23.3959868407">
        <ele>4</ele>
        <time>2012-02-13T18:50:07Z</time>
      </trkpt>
      <trkpt lat="59.993385799" lon="23.3957027781">
        <ele>4</ele>
        <time>2012-02-13T18:50:11Z</time>
      </trkpt>
      <trkpt lat="59.9933656825" lon="23.3956609524">
        <ele>4</ele>
        <time>2012-02-13T18:50:12Z</time>
      </trkpt>
      <trkpt lat="59.9933505112" lon="23.3956648919">
        <ele>4</ele>
        <time>2012-02-13T18:50:17Z</time>
      </trkpt>
      <trkpt lat="59.9933372678" lon="23.3956532411">
        <ele>4</ele>
        <time>2012-02-13T18:50:22Z</time>
      </trkpt>
      <trkpt lat="59.9933032373" lon="23.3955733616">
        <ele>4.2</ele>
        <time>2012-02-13T18:50:27Z</time>
      </trkpt>
      <trkpt lat="59.9932952745" lon="23.3955464557">
        <ele>4.4</ele>
        <time>2012-02-13T18:50:28Z</time>
      </trkpt>
      <trkpt lat="59.9932485035" lon="23.3954483036">
        <ele>5</ele>
        <time>2012-02-13T18:50:33Z</time>
      </trkpt>
      <trkpt lat="59.9932338352" lon="23.395425924">
        <ele>5.2</ele>
        <time>2012-02-13T18:50:34Z</time>
      </trkpt>
      <trkpt lat="59.9931495133" lon="23.3952728705">
        <ele>5.6</ele>
        <time>2012-02-13T18:50:40Z</time>
      </trkpt>
      <trkpt lat="59.9930968749" lon="23.3951706951">
        <ele>5.8</ele>
        <time>2012-02-13T18:50:44Z</time>
      </trkpt>
      <trkpt lat="59.9930801949" lon="23.39514622">
        <ele>5.8</ele>
        <time>2012-02-13T18:50:45Z</time>
      </trkpt>
      <trkpt lat="59.9930661134" lon="23.3951265225">
        <ele>5.8</ele>
        <time>2012-02-13T18:50:46Z</time>
      </trkpt>
      <trkpt lat="59.9930101223" lon="23.3950313041">
        <ele>5.8</ele>
        <time>2012-02-13T18:50:50Z</time>
      </trkpt>
      <trkpt lat="59.9929831325" lon="23.3950092597">
        <ele>5.8</ele>
        <time>2012-02-13T18:50:52Z</time>
      </trkpt>
      <trkpt lat="59.9929021634" lon="23.3948658454">
        <ele>6</ele>
        <time>2012-02-13T18:50:57Z</time>
      </trkpt>
      <trkpt lat="59.9928246308" lon="23.394729891">
        <ele>6</ele>
        <time>2012-02-13T18:51:02Z</time>
      </trkpt>
      <trkpt lat="59.9927558992" lon="23.3946353432">
        <ele>6.8</ele>
        <time>2012-02-13T18:51:07Z</time>
      </trkpt>
      <trkpt lat="59.9927424882" lon="23.3946146399">
        <ele>6.8</ele>
        <time>2012-02-13T18:51:08Z</time>
      </trkpt>
      <trkpt lat="59.9926854913" lon="23.3945188348">
        <ele>7.2</ele>
        <time>2012-02-13T18:51:12Z</time>
      </trkpt>
      <trkpt lat="59.9926419054" lon="23.3944582336">
        <ele>7.4</ele>
        <time>2012-02-13T18:51:15Z</time>
      </trkpt>
      <trkpt lat="59.9925538954" lon="23.3943403841">
        <ele>7.8</ele>
        <time>2012-02-13T18:51:20Z</time>
      </trkpt>
      <trkpt lat="59.9924809729" lon="23.3942063575">
        <ele>7.8</ele>
        <time>2012-02-13T18:51:25Z</time>
      </trkpt>
      <trkpt lat="59.9923977406" lon="23.3940508733">
        <ele>8</ele>
        <time>2012-02-13T18:51:31Z</time>
      </trkpt>
      <trkpt lat="59.99238785" lon="23.3940094667">
        <ele>8</ele>
        <time>2012-02-13T18:51:32Z</time>
      </trkpt>
      <trkpt lat="59.9923247343" lon="23.393807882">
        <ele>8</ele>
        <time>2012-02-13T18:51:37Z</time>
      </trkpt>
      <trkpt lat="59.9922565894" lon="23.3935643878">
        <ele>8</ele>
        <time>2012-02-13T18:51:43Z</time>
      </trkpt>
      <trkpt lat="59.9922090641" lon="23.3933685028">
        <ele>8</ele>
        <time>2012-02-13T18:51:48Z</time>
      </trkpt>
      <trkpt lat="59.992161874" lon="23.3931608831">
        <ele>8</ele>
        <time>2012-02-13T18:51:53Z</time>
      </trkpt>
      <trkpt lat="59.9921402487" lon="23.3930691851">
        <ele>8</ele>
        <time>2012-02-13T18:51:55Z</time>
      </trkpt>
      <trkpt lat="59.9920853472" lon="23.3929315543">
        <ele>8</ele>
        <time>2012-02-13T18:51:59Z</time>
      </trkpt>
      <trkpt lat="59.9919832557" lon="23.3927314784">
        <ele>8.4</ele>
        <time>2012-02-13T18:52:05Z</time>
      </trkpt>
      <trkpt lat="59.9919186312" lon="23.3926369306">
        <ele>9</ele>
        <time>2012-02-13T18:52:08Z</time>
      </trkpt>
      <trkpt lat="59.9918986823" lon="23.3925994635">
        <ele>9.2</ele>
        <time>2012-02-13T18:52:09Z</time>
      </trkpt>
      <trkpt lat="59.9917451259" lon="23.392647827">
        <ele>9.6</ele>
        <time>2012-02-13T18:52:15Z</time>
      </trkpt>
      <trkpt lat="59.9916734607" lon="23.3927625752">
        <ele>9.8</ele>
        <time>2012-02-13T18:52:18Z</time>
      </trkpt>
      <trkpt lat="59.9916337305" lon="23.3928151298">
        <ele>10</ele>
        <time>2012-02-13T18:52:20Z</time>
      </trkpt>
      <trkpt lat="59.9914919925" lon="23.3929209093">
        <ele>11.2</ele>
        <time>2012-02-13T18:52:27Z</time>
      </trkpt>
      <trkpt lat="59.9914032282" lon="23.3929577897">
        <ele>11.4</ele>
        <time>2012-02-13T18:52:30Z</time>
      </trkpt>
      <trkpt lat="59.9911765816" lon="23.3931098374">
        <ele>12.4</ele>
        <time>2012-02-13T18:52:36Z</time>
      </trkpt>
      <trkpt lat="59.9909706384" lon="23.3931119328">
        <ele>13</ele>
        <time>2012-02-13T18:52:41Z</time>
      </trkpt>
      <trkpt lat="59.9908768449" lon="23.3931386711">
        <ele>13.2</ele>
        <time>2012-02-13T18:52:42Z</time>
      </trkpt>
      <trkpt lat="59.990661933" lon="23.3932586999">
        <ele>13.6</ele>
        <time>2012-02-13T18:52:46Z</time>
      </trkpt>
      <trkpt lat="59.9906017509" lon="23.3933098295">
        <ele>13.6</ele>
        <time>2012-02-13T18:52:47Z</time>
      </trkpt>
      <trkpt lat="59.9905536388" lon="23.3933648986">
        <ele>13.8</ele>
        <time>2012-02-13T18:52:48Z</time>
      </trkpt>
      <trkpt lat="59.9904260663" lon="23.3936895296">
        <ele>14</ele>
        <time>2012-02-13T18:52:52Z</time>
      </trkpt>
      <trkpt lat="59.990410476" lon="23.3938573352">
        <ele>14</ele>
        <time>2012-02-13T18:52:54Z</time>
      </trkpt>
      <trkpt lat="59.9904026808" lon="23.3940063654">
        <ele>14</ele>
        <time>2012-02-13T18:52:57Z</time>
      </trkpt>
      <trkpt lat="59.9903932093" lon="23.3942742509">
        <ele>14.2</ele>
        <time>2012-02-13T18:53:03Z</time>
      </trkpt>
      <trkpt lat="59.990385917" lon="23.3943334271">
        <ele>14.2</ele>
        <time>2012-02-13T18:53:04Z</time>
      </trkpt>
      <trkpt lat="59.9903152576" lon="23.394660908">
        <ele>14.8</ele>
        <time>2012-02-13T18:53:10Z</time>
      </trkpt>
      <trkpt lat="59.9902471966" lon="23.3949149633">
        <ele>15.4</ele>
        <time>2012-02-13T18:53:14Z</time>
      </trkpt>
      <trkpt lat="59.9901811472" lon="23.3951999479">
        <ele>15.6</ele>
        <time>2012-02-13T18:53:18Z</time>
      </trkpt>
      <trkpt lat="59.9901442668" lon="23.3955700088">
        <ele>16</ele>
        <time>2012-02-13T18:53:23Z</time>
      </trkpt>
      <trkpt lat="59.9902018505" lon="23.3958131678">
        <ele>16</ele>
        <time>2012-02-13T18:53:27Z</time>
      </trkpt>
      <trkpt lat="59.9902856695" lon="23.3963741683">
        <ele>16.2</ele>
        <time>2012-02-13T18:53:37Z</time>
      </trkpt>
      <trkpt lat="59.9902232243" lon="23.3967427205">
        <ele>16.2</ele>
        <time>2012-02-13T18:53:42Z</time>
      </trkpt>
      <trkpt lat="59.9901545766" lon="23.3969447243">
        <ele>16.4</ele>
        <time>2012-02-13T18:53:46Z</time>
      </trkpt>
      <trkpt lat="59.9900792233" lon="23.3971567025">
        <ele>16.4</ele>
        <time>2012-02-13T18:53:50Z</time>
      </trkpt>
      <trkpt lat="59.9900518145" lon="23.3972147053">
        <ele>16.4</ele>
        <time>2012-02-13T18:53:51Z</time>
      </trkpt>
      <trkpt lat="59.9899744495" lon="23.3974530027">
        <ele>16.4</ele>
        <time>2012-02-13T18:53:55Z</time>
      </trkpt>
      <trkpt lat="59.9899603679" lon="23.3975025397">
        <ele>16.4</ele>
        <time>2012-02-13T18:53:56Z</time>
      </trkpt>
      <trkpt lat="59.9899416763" lon="23.3975526635">
        <ele>16.4</ele>
        <time>2012-02-13T18:53:57Z</time>
      </trkpt>
      <trkpt lat="59.9899369824" lon="23.3977727722">
        <ele>16.4</ele>
        <time>2012-02-13T18:54:01Z</time>
      </trkpt>
      <trkpt lat="59.9900012716" lon="23.3981895202">
        <ele>16.4</ele>
        <time>2012-02-13T18:54:09Z</time>
      </trkpt>
      <trkpt lat="59.9900560892" lon="23.3983855729">
        <ele>16.4</ele>
        <time>2012-02-13T18:54:14Z</time>
      </trkpt>
      <trkpt lat="59.9901032793" lon="23.3986351858">
        <ele>16.4</ele>
        <time>2012-02-13T18:54:18Z</time>
      </trkpt>
      <trkpt lat="59.9900134254" lon="23.398976413">
        <ele>16.4</ele>
        <time>2012-02-13T18:54:22Z</time>
      </trkpt>
      <trkpt lat="59.9899804007" lon="23.3990317335">
        <ele>16.4</ele>
        <time>2012-02-13T18:54:23Z</time>
      </trkpt>
      <trkpt lat="59.9898963302" lon="23.399145895">
        <ele>16.4</ele>
        <time>2012-02-13T18:54:27Z</time>
      </trkpt>
      <trkpt lat="59.9897888743" lon="23.3993203223">
        <ele>16.4</ele>
        <time>2012-02-13T18:54:33Z</time>
      </trkpt>
      <trkpt lat="59.9896657442" lon="23.3994905587">
        <ele>16.4</ele>
        <time>2012-02-13T18:54:39Z</time>
      </trkpt>
      <trkpt lat="59.9895408538" lon="23.3996923949">
        <ele>16.4</ele>
        <time>2012-02-13T18:54:45Z</time>
      </trkpt>
      <trkpt lat="59.9894300451" lon="23.3998347196">
        <ele>16.4</ele>
        <time>2012-02-13T18:54:50Z</time>
      </trkpt>
      <trkpt lat="59.9893618165" lon="23.3999983342">
        <ele>16.4</ele>
        <time>2012-02-13T18:54:54Z</time>
      </trkpt>
      <trkpt lat="59.9893062445" lon="23.400240655">
        <ele>16.4</ele>
        <time>2012-02-13T18:54:59Z</time>
      </trkpt>
      <trkpt lat="59.989261066" lon="23.4004456762">
        <ele>16.4</ele>
        <time>2012-02-13T18:55:04Z</time>
      </trkpt>
      <trkpt lat="59.9892499181" lon="23.400779192">
        <ele>16.4</ele>
        <time>2012-02-13T18:55:08Z</time>
      </trkpt>
      <trkpt lat="59.9893268639" lon="23.4011138813">
        <ele>16.4</ele>
        <time>2012-02-13T18:55:11Z</time>
      </trkpt>
      <trkpt lat="59.9894090066" lon="23.4014650829">
        <ele>15.6</ele>
        <time>2012-02-13T18:55:15Z</time>
      </trkpt>
      <trkpt lat="59.9894203221" lon="23.4014994487">
        <ele>15.4</ele>
        <time>2012-02-13T18:55:16Z</time>
      </trkpt>
      <trkpt lat="59.98942686" lon="23.4015183918">
        <ele>15.4</ele>
        <time>2012-02-13T18:55:17Z</time>
      </trkpt>
      <trkpt lat="59.9894368345" lon="23.4016810007">
        <ele>14.6</ele>
        <time>2012-02-13T18:55:26Z</time>
      </trkpt>
      <trkpt lat="59.9894119402" lon="23.4018301985">
        <ele>14.4</ele>
        <time>2012-02-13T18:55:31Z</time>
      </trkpt>
      <trkpt lat="59.9893130338" lon="23.4021030293">
        <ele>14.4</ele>
        <time>2012-02-13T18:55:37Z</time>
      </trkpt>
      <trkpt lat="59.9891953519" lon="23.4024376348">
        <ele>14.2</ele>
        <time>2012-02-13T18:55:41Z</time>
      </trkpt>
      <trkpt lat="59.9890995468" lon="23.4027581586">
        <ele>14.2</ele>
        <time>2012-02-13T18:55:44Z</time>
      </trkpt>
      <trkpt lat="59.9889925938" lon="23.4031757449">
        <ele>13.6</ele>
        <time>2012-02-13T18:55:47Z</time>
      </trkpt>
      <trkpt lat="59.9889145583" lon="23.4034509227">
        <ele>13.4</ele>
        <time>2012-02-13T18:55:49Z</time>
      </trkpt>
      <trkpt lat="59.9889330823" lon="23.4036885495">
        <ele>13</ele>
        <time>2012-02-13T18:55:52Z</time>
      </trkpt>
      <trkpt lat="59.9890160631" lon="23.4035836081">
        <ele>12.8</ele>
        <time>2012-02-13T18:55:55Z</time>
      </trkpt>
      <trkpt lat="59.9890515185" lon="23.4035298802">
        <ele>12.4</ele>
        <time>2012-02-13T18:55:56Z</time>
      </trkpt>
      <trkpt lat="59.9890874769" lon="23.4034596398">
        <ele>12.2</ele>
        <time>2012-02-13T18:55:57Z</time>
      </trkpt>
      <trkpt lat="59.9892043206" lon="23.4032722206">
        <ele>11.6</ele>
        <time>2012-02-13T18:56:00Z</time>
      </trkpt>
      <trkpt lat="59.9893416999" lon="23.4031236095">
        <ele>11</ele>
        <time>2012-02-13T18:56:05Z</time>
      </trkpt>
      <trkpt lat="59.9894764809" lon="23.4031821151">
        <ele>10.6</ele>
        <time>2012-02-13T18:56:09Z</time>
      </trkpt>
      <trkpt lat="59.989613022" lon="23.4032962766">
        <ele>9.8</ele>
        <time>2012-02-13T18:56:13Z</time>
      </trkpt>
      <trkpt lat="59.989708408" lon="23.4034314767">
        <ele>9</ele>
        <time>2012-02-13T18:56:18Z</time>
      </trkpt>
      <trkpt lat="59.9897210647" lon="23.4034375116">
        <ele>9</ele>
        <time>2012-02-13T18:56:19Z</time>
      </trkpt>
      <trkpt lat="59.9897358168" lon="23.4034477375">
        <ele>8.8</ele>
        <time>2012-02-13T18:56:21Z</time>
      </trkpt>
      <trkpt lat="59.9897550114" lon="23.4034642499">
        <ele>8.6</ele>
        <time>2012-02-13T18:56:23Z</time>
      </trkpt>
      <trkpt lat="59.9898006089" lon="23.4035250187">
        <ele>8.4</ele>
        <time>2012-02-13T18:56:29Z</time>
      </trkpt>
      <trkpt lat="59.9898726095" lon="23.4035990308">
        <ele>8.2</ele>
        <time>2012-02-13T18:56:38Z</time>
      </trkpt>
      <trkpt lat="59.9899078134" lon="23.4036181416">
        <ele>8.6</ele>
        <time>2012-02-13T18:56:42Z</time>
      </trkpt>
      <trkpt lat="59.9899730246" lon="23.4036708637">
        <ele>9.6</ele>
        <time>2012-02-13T18:56:50Z</time>
      </trkpt>
      <trkpt lat="59.9900354698" lon="23.4037112645">
        <ele>10.8</ele>
        <time>2012-02-13T18:56:56Z</time>
      </trkpt>
      <trkpt lat="59.9901230606" lon="23.4037925689">
        <ele>11.6</ele>
        <time>2012-02-13T18:57:02Z</time>
      </trkpt>
      <trkpt lat="59.9902336179" lon="23.403877729">
        <ele>11.8</ele>
        <time>2012-02-13T18:57:07Z</time>
      </trkpt>
      <trkpt lat="59.9904158404" lon="23.4039725283">
        <ele>12</ele>
        <time>2012-02-13T18:57:12Z</time>
      </trkpt>
      <trkpt lat="59.9906280701" lon="23.4039951594">
        <ele>12.2</ele>
        <time>2012-02-13T18:57:18Z</time>
      </trkpt>
      <trkpt lat="59.9907756754" lon="23.4040649807">
        <ele>12.2</ele>
        <time>2012-02-13T18:57:21Z</time>
      </trkpt>
      <trkpt lat="59.9908485979" lon="23.4043078043">
        <ele>12.2</ele>
        <time>2012-02-13T18:57:24Z</time>
      </trkpt>
      <trkpt lat="59.990890675" lon="23.4048874127">
        <ele>12.2</ele>
        <time>2012-02-13T18:57:29Z</time>
      </trkpt>
      <trkpt lat="59.9909051757" lon="23.4049802841">
        <ele>12.2</ele>
        <time>2012-02-13T18:57:30Z</time>
      </trkpt>
      <trkpt lat="59.9909195088" lon="23.405065109">
        <ele>12.2</ele>
        <time>2012-02-13T18:57:32Z</time>
      </trkpt>
      <trkpt lat="59.9908998113" lon="23.4054649256">
        <ele>11.4</ele>
        <time>2012-02-13T18:57:37Z</time>
      </trkpt>
      <trkpt lat="59.9909181677" lon="23.4057461383">
        <ele>11</ele>
        <time>2012-02-13T18:57:42Z</time>
      </trkpt>
      <trkpt lat="59.9909887433" lon="23.405965325">
        <ele>10.4</ele>
        <time>2012-02-13T18:57:46Z</time>
      </trkpt>
      <trkpt lat="59.99111992" lon="23.4060046361">
        <ele>9.6</ele>
        <time>2012-02-13T18:57:51Z</time>
      </trkpt>
      <trkpt lat="59.9911452333" lon="23.40599265">
        <ele>9.4</ele>
        <time>2012-02-13T18:57:52Z</time>
      </trkpt>
      <trkpt lat="59.991330641" lon="23.4058817575">
        <ele>8.8</ele>
        <time>2012-02-13T18:57:59Z</time>
      </trkpt>
      <trkpt lat="59.9914680203" lon="23.4058188094">
        <ele>8.4</ele>
        <time>2012-02-13T18:58:05Z</time>
      </trkpt>
      <trkpt lat="59.9914895618" lon="23.4057924064">
        <ele>8.4</ele>
        <time>2012-02-13T18:58:06Z</time>
      </trkpt>
      <trkpt lat="59.9915637416" lon="23.4057487367">
        <ele>8.4</ele>
        <time>2012-02-13T18:58:09Z</time>
      </trkpt>
      <trkpt lat="59.9917641528" lon="23.4056831065">
        <ele>8.2</ele>
        <time>2012-02-13T18:58:16Z</time>
      </trkpt>
      <trkpt lat="59.9918845169" lon="23.405565676">
        <ele>8.2</ele>
        <time>2012-02-13T18:58:21Z</time>
      </trkpt>
      <trkpt lat="59.9919799029" lon="23.4053536978">
        <ele>8.2</ele>
        <time>2012-02-13T18:58:27Z</time>
      </trkpt>
      <trkpt lat="59.9920932262" lon="23.405084555">
        <ele>8.2</ele>
        <time>2012-02-13T18:58:34Z</time>
      </trkpt>
      <trkpt lat="59.9922321143" lon="23.4049157435">
        <ele>8.2</ele>
        <time>2012-02-13T18:58:40Z</time>
      </trkpt>
      <trkpt lat="59.9922912905" lon="23.4048584951">
        <ele>8.2</ele>
        <time>2012-02-13T18:58:42Z</time>
      </trkpt>
      <trkpt lat="59.9924094753" lon="23.4047368738">
        <ele>8.2</ele>
        <time>2012-02-13T18:58:47Z</time>
      </trkpt>
      <trkpt lat="59.9924238084" lon="23.4046939584">
        <ele>8.2</ele>
        <time>2012-02-13T18:58:48Z</time>
      </trkpt>
      <trkpt lat="59.9925409873" lon="23.4044102311">
        <ele>8.2</ele>
        <time>2012-02-13T18:58:54Z</time>
      </trkpt>
      <trkpt lat="59.9926470184" lon="23.4043025237">
        <ele>8.2</ele>
        <time>2012-02-13T18:58:58Z</time>
      </trkpt>
      <trkpt lat="59.9928402211" lon="23.4041715984">
        <ele>8.2</ele>
        <time>2012-02-13T18:59:04Z</time>
      </trkpt>
      <trkpt lat="59.9929049294" lon="23.4039661581">
        <ele>8.6</ele>
        <time>2012-02-13T18:59:08Z</time>
      </trkpt>
      <trkpt lat="59.9929526224" lon="23.4036070775">
        <ele>9.2</ele>
        <time>2012-02-13T18:59:12Z</time>
      </trkpt>
      <trkpt lat="59.9930174983" lon="23.4032560435">
        <ele>9.4</ele>
        <time>2012-02-13T18:59:15Z</time>
      </trkpt>
      <trkpt lat="59.9930775127" lon="23.4028326737">
        <ele>9.8</ele>
        <time>2012-02-13T18:59:19Z</time>
      </trkpt>
      <trkpt lat="59.9930800273" lon="23.4027643612">
        <ele>9.8</ele>
        <time>2012-02-13T18:59:20Z</time>
      </trkpt>
      <trkpt lat="59.9930749143" lon="23.402556993">
        <ele>9.8</ele>
        <time>2012-02-13T18:59:24Z</time>
      </trkpt>
      <trkpt lat="59.9930731541" lon="23.4024935421">
        <ele>10</ele>
        <time>2012-02-13T18:59:25Z</time>
      </trkpt>
      <trkpt lat="59.9930587373" lon="23.4023737647">
        <ele>10</ele>
        <time>2012-02-13T18:59:28Z</time>
      </trkpt>
      <trkpt lat="59.9930585696" lon="23.4022830725">
        <ele>10</ele>
        <time>2012-02-13T18:59:30Z</time>
      </trkpt>
      <trkpt lat="59.9930464997" lon="23.4021292647">
        <ele>10.2</ele>
        <time>2012-02-13T18:59:34Z</time>
      </trkpt>
      <trkpt lat="59.99301951" lon="23.4018903805">
        <ele>10.6</ele>
        <time>2012-02-13T18:59:40Z</time>
      </trkpt>
      <trkpt lat="59.9929975494" lon="23.4016561902">
        <ele>11.2</ele>
        <time>2012-02-13T18:59:45Z</time>
      </trkpt>
      <trkpt lat="59.9929863177" lon="23.4014082536">
        <ele>11.6</ele>
        <time>2012-02-13T18:59:50Z</time>
      </trkpt>
      <trkpt lat="59.9929921012" lon="23.4011741472">
        <ele>12.8</ele>
        <time>2012-02-13T18:59:55Z</time>
      </trkpt>
      <trkpt lat="59.9929879102" lon="23.4009133024">
        <ele>14</ele>
        <time>2012-02-13T19:00:00Z</time>
      </trkpt>
      <trkpt lat="59.9929713979" lon="23.4006514519">
        <ele>15</ele>
        <time>2012-02-13T19:00:05Z</time>
      </trkpt>
      <trkpt lat="59.9929795283" lon="23.4004285772">
        <ele>16.2</ele>
        <time>2012-02-13T19:00:11Z</time>
      </trkpt>
      <trkpt lat="59.9929594118" lon="23.4002064568">
        <ele>17.2</ele>
        <time>2012-02-13T19:00:16Z</time>
      </trkpt>
      <trkpt lat="59.9928904287" lon="23.4000394056">
        <ele>18</ele>
        <time>2012-02-13T19:00:21Z</time>
      </trkpt>
      <trkpt lat="59.9926554003" lon="23.3997904631">
        <ele>19.6</ele>
        <time>2012-02-13T19:00:30Z</time>
      </trkpt>
      <trkpt lat="59.9924565816" lon="23.3996325481">
        <ele>20.2</ele>
        <time>2012-02-13T19:00:36Z</time>
      </trkpt>
      <trkpt lat="59.9923116585" lon="23.3994152893">
        <ele>20.4</ele>
        <time>2012-02-13T19:00:40Z</time>
      </trkpt>
      <trkpt lat="59.9922565056" lon="23.3993164667">
        <ele>20.4</ele>
        <time>2012-02-13T19:00:41Z</time>
      </trkpt>
      <trkpt lat="59.9921047094" lon="23.3990568792">
        <ele>20.4</ele>
        <time>2012-02-13T19:00:44Z</time>
      </trkpt>
      <trkpt lat="59.9919469621" lon="23.3988432246">
        <ele>20.6</ele>
        <time>2012-02-13T19:00:47Z</time>
      </trkpt>
      <trkpt lat="59.9918941561" lon="23.3987884908">
        <ele>20.6</ele>
        <time>2012-02-13T19:00:48Z</time>
      </trkpt>
      <trkpt lat="59.9917366602" lon="23.3987085275">
        <ele>20.6</ele>
        <time>2012-02-13T19:00:52Z</time>
      </trkpt>
      <trkpt lat="59.9916833513" lon="23.3986858963">
        <ele>20.6</ele>
        <time>2012-02-13T19:00:54Z</time>
      </trkpt>
      <trkpt lat="59.9916027174" lon="23.3987419712">
        <ele>20.6</ele>
        <time>2012-02-13T19:00:57Z</time>
      </trkpt>
      <trkpt lat="59.9915777394" lon="23.398762926">
        <ele>20.6</ele>
        <time>2012-02-13T19:00:58Z</time>
      </trkpt>
      <trkpt lat="59.9914282063" lon="23.3988690409">
        <ele>20.8</ele>
        <time>2012-02-13T19:01:04Z</time>
      </trkpt>
      <trkpt lat="59.9913590556" lon="23.3989189132">
        <ele>20.8</ele>
        <time>2012-02-13T19:01:06Z</time>
      </trkpt>
      <trkpt lat="59.9913024778" lon="23.3989666062">
        <ele>20.8</ele>
        <time>2012-02-13T19:01:08Z</time>
      </trkpt>
      <trkpt lat="59.9911599855" lon="23.3990691168">
        <ele>20.8</ele>
        <time>2012-02-13T19:01:13Z</time>
      </trkpt>
      <trkpt lat="59.9910329159" lon="23.3991229286">
        <ele>20.8</ele>
        <time>2012-02-13T19:01:18Z</time>
      </trkpt>
      <trkpt lat="59.9908970453" lon="23.3990998784">
        <ele>20.8</ele>
        <time>2012-02-13T19:01:23Z</time>
      </trkpt>
      <trkpt lat="59.9908454128" lon="23.3990568792">
        <ele>20.8</ele>
        <time>2012-02-13T19:01:26Z</time>
      </trkpt>
      <trkpt lat="59.9907796149" lon="23.3989550391">
        <ele>20.8</ele>
        <time>2012-02-13T19:01:30Z</time>
      </trkpt>
      <trkpt lat="59.9907672096" lon="23.3989357608">
        <ele>20.8</ele>
        <time>2012-02-13T19:01:31Z</time>
      </trkpt>
      <trkpt lat="59.9906862405" lon="23.3987809471">
        <ele>20.8</ele>
        <time>2012-02-13T19:01:37Z</time>
      </trkpt>
      <trkpt lat="59.9906684709" lon="23.3987624231">
        <ele>20.8</ele>
        <time>2012-02-13T19:01:38Z</time>
      </trkpt>
      <trkpt lat="59.9905995716" lon="23.3987047556">
        <ele>20.8</ele>
        <time>2012-02-13T19:01:42Z</time>
      </trkpt>
      <trkpt lat="59.9904973125" lon="23.3986431486">
        <ele>20.8</ele>
        <time>2012-02-13T19:01:48Z</time>
      </trkpt>
      <trkpt lat="59.9904059497" lon="23.3986850581">
        <ele>20.8</ele>
        <time>2012-02-13T19:01:52Z</time>
      </trkpt>
      <trkpt lat="59.9903559098" lon="23.3987464975">
        <ele>20.8</ele>
        <time>2012-02-13T19:01:54Z</time>
      </trkpt>
      <trkpt lat="59.9902676484" lon="23.3988480023">
        <ele>20.8</ele>
        <time>2012-02-13T19:01:59Z</time>
      </trkpt>
      <trkpt lat="59.9901855058" lon="23.3989288876">
        <ele>21</ele>
        <time>2012-02-13T19:02:03Z</time>
      </trkpt>
      <trkpt lat="59.9901254914" lon="23.3989866389">
        <ele>21.4</ele>
        <time>2012-02-13T19:02:06Z</time>
      </trkpt>
      <trkpt lat="59.9900430973" lon="23.3990959389">
        <ele>21.8</ele>
        <time>2012-02-13T19:02:10Z</time>
      </trkpt>
      <trkpt lat="59.9899369824" lon="23.3992603918">
        <ele>22.4</ele>
        <time>2012-02-13T19:02:16Z</time>
      </trkpt>
      <trkpt lat="59.9898418479" lon="23.3994176362">
        <ele>23.2</ele>
        <time>2012-02-13T19:02:21Z</time>
      </trkpt>
      <trkpt lat="59.9897295304" lon="23.3995770599">
        <ele>23.8</ele>
        <time>2012-02-13T19:02:27Z</time>
      </trkpt>
      <trkpt lat="59.9896124353" lon="23.3997646469">
        <ele>24.2</ele>
        <time>2012-02-13T19:02:32Z</time>
      </trkpt>
      <trkpt lat="59.9895320529" lon="23.399853495">
        <ele>24.4</ele>
        <time>2012-02-13T19:02:36Z</time>
      </trkpt>
      <trkpt lat="59.9894432885" lon="23.4000037825">
        <ele>24.6</ele>
        <time>2012-02-13T19:02:40Z</time>
      </trkpt>
      <trkpt lat="59.9893867107" lon="23.4002235559">
        <ele>25.2</ele>
        <time>2012-02-13T19:02:45Z</time>
      </trkpt>
      <trkpt lat="59.98933424" lon="23.4004329358">
        <ele>26</ele>
        <time>2012-02-13T19:02:50Z</time>
      </trkpt>
      <trkpt lat="59.9892917438" lon="23.4007362767">
        <ele>26.4</ele>
        <time>2012-02-13T19:02:55Z</time>
      </trkpt>
      <trkpt lat="59.9893415323" lon="23.4010498436">
        <ele>26.4</ele>
        <time>2012-02-13T19:02:58Z</time>
      </trkpt>
      <trkpt lat="59.9894492397" lon="23.4014489059">
        <ele>26.6</ele>
        <time>2012-02-13T19:03:02Z</time>
      </trkpt>
      <trkpt lat="59.9894756427" lon="23.4015527576">
        <ele>26.6</ele>
        <time>2012-02-13T19:03:04Z</time>
      </trkpt>
      <trkpt lat="59.989501878" lon="23.4016355708">
        <ele>26.8</ele>
        <time>2012-02-13T19:03:09Z</time>
      </trkpt>
      <trkpt lat="59.9895074939" lon="23.401771609">
        <ele>26.8</ele>
        <time>2012-02-13T19:03:16Z</time>
      </trkpt>
      <trkpt lat="59.9894676799" lon="23.4019199686">
        <ele>26.8</ele>
        <time>2012-02-13T19:03:21Z</time>
      </trkpt>
      <trkpt lat="59.9893841961" lon="23.4021306058">
        <ele>27</ele>
        <time>2012-02-13T19:03:27Z</time>
      </trkpt>
      <trkpt lat="59.9892566236" lon="23.4024869204">
        <ele>27</ele>
        <time>2012-02-13T19:03:31Z</time>
      </trkpt>
      <trkpt lat="59.9890658516" lon="23.4031718054">
        <ele>27</ele>
        <time>2012-02-13T19:03:37Z</time>
      </trkpt>
      <trkpt lat="59.9890237744" lon="23.4033200812">
        <ele>27</ele>
        <time>2012-02-13T19:03:38Z</time>
      </trkpt>
      <trkpt lat="59.9889537018" lon="23.4035589654">
        <ele>26.8</ele>
        <time>2012-02-13T19:03:40Z</time>
      </trkpt>
      <trkpt lat="59.988991085" lon="23.4037608853">
        <ele>26.2</ele>
        <time>2012-02-13T19:03:44Z</time>
      </trkpt>
      <trkpt lat="59.9890524405" lon="23.403692489">
        <ele>26</ele>
        <time>2012-02-13T19:03:46Z</time>
      </trkpt>
      <trkpt lat="59.9892406142" lon="23.4033957698">
        <ele>25.2</ele>
        <time>2012-02-13T19:03:50Z</time>
      </trkpt>
      <trkpt lat="59.9893012153" lon="23.4033088495">
        <ele>24.8</ele>
        <time>2012-02-13T19:03:52Z</time>
      </trkpt>
      <trkpt lat="59.9894100962" lon="23.4032144693">
        <ele>23.8</ele>
        <time>2012-02-13T19:03:57Z</time>
      </trkpt>
      <trkpt lat="59.9895401833" lon="23.4032770821">
        <ele>23</ele>
        <time>2012-02-13T19:04:01Z</time>
      </trkpt>
      <trkpt lat="59.9895732918" lon="23.4033135433">
        <ele>22.8</ele>
        <time>2012-02-13T19:04:02Z</time>
      </trkpt>
      <trkpt lat="59.9897120122" lon="23.403459556">
        <ele>21.6</ele>
        <time>2012-02-13T19:04:08Z</time>
      </trkpt>
      <trkpt lat="59.9897757985" lon="23.4035496615">
        <ele>21.2</ele>
        <time>2012-02-13T19:04:12Z</time>
      </trkpt>
      <trkpt lat="59.9898135171" lon="23.4035707838">
        <ele>20.8</ele>
        <time>2012-02-13T19:04:18Z</time>
      </trkpt>
      <trkpt lat="59.9898219828" lon="23.4035789981">
        <ele>20.8</ele>
        <time>2012-02-13T19:04:19Z</time>
      </trkpt>
      <trkpt lat="59.9898742858" lon="23.4036315526">
        <ele>20.6</ele>
        <time>2012-02-13T19:04:27Z</time>
      </trkpt>
      <trkpt lat="59.989935809" lon="23.4036794971">
        <ele>20.4</ele>
        <time>2012-02-13T19:04:34Z</time>
      </trkpt>
      <trkpt lat="59.9899698395" lon="23.4037025473">
        <ele>20.4</ele>
        <time>2012-02-13T19:04:38Z</time>
      </trkpt>
      <trkpt lat="59.9900218073" lon="23.4037347338">
        <ele>21.4</ele>
        <time>2012-02-13T19:04:44Z</time>
      </trkpt>
      <trkpt lat="59.9900906227" lon="23.4037975981">
        <ele>22</ele>
        <time>2012-02-13T19:04:51Z</time>
      </trkpt>
      <trkpt lat="59.9901820692" lon="23.4038815847">
        <ele>22.6</ele>
        <time>2012-02-13T19:04:56Z</time>
      </trkpt>
      <trkpt lat="59.9903131621" lon="23.4039939022">
        <ele>23.4</ele>
        <time>2012-02-13T19:05:01Z</time>
      </trkpt>
      <trkpt lat="59.9904917804" lon="23.4040815768">
        <ele>23.8</ele>
        <time>2012-02-13T19:05:06Z</time>
      </trkpt>
      <trkpt lat="59.9907144875" lon="23.4040934791">
        <ele>24.2</ele>
        <time>2012-02-13T19:05:12Z</time>
      </trkpt>
      <trkpt lat="59.9908168305" lon="23.4041518171">
        <ele>24.2</ele>
        <time>2012-02-13T19:05:14Z</time>
      </trkpt>
      <trkpt lat="59.990901823" lon="23.4045313496">
        <ele>24.4</ele>
        <time>2012-02-13T19:05:18Z</time>
      </trkpt>
      <trkpt lat="59.9909312434" lon="23.4049269753">
        <ele>24</ele>
        <time>2012-02-13T19:05:22Z</time>
      </trkpt>
      <trkpt lat="59.9909449897" lon="23.4051832099">
        <ele>23.6</ele>
        <time>2012-02-13T19:05:25Z</time>
      </trkpt>
      <trkpt lat="59.9909314949" lon="23.4054665182">
        <ele>23</ele>
        <time>2012-02-13T19:05:31Z</time>
      </trkpt>
      <trkpt lat="59.9909303214" lon="23.4057225014">
        <ele>22</ele>
        <time>2012-02-13T19:05:37Z</time>
      </trkpt>
      <trkpt lat="59.9909931857" lon="23.4059802448">
        <ele>21.4</ele>
        <time>2012-02-13T19:05:41Z</time>
      </trkpt>
      <trkpt lat="59.9911212611" lon="23.4061121759">
        <ele>21.2</ele>
        <time>2012-02-13T19:05:46Z</time>
      </trkpt>
      <trkpt lat="59.9912179882" lon="23.4060654049">
        <ele>20.8</ele>
        <time>2012-02-13T19:05:49Z</time>
      </trkpt>
      <trkpt lat="59.9913323173" lon="23.4060040494">
        <ele>20.6</ele>
        <time>2012-02-13T19:05:53Z</time>
      </trkpt>
      <trkpt lat="59.9914733847" lon="23.4059338929">
        <ele>20.6</ele>
        <time>2012-02-13T19:05:59Z</time>
      </trkpt>
      <trkpt lat="59.9914910705" lon="23.4059101721">
        <ele>20.6</ele>
        <time>2012-02-13T19:06:00Z</time>
      </trkpt>
      <trkpt lat="59.9916044776" lon="23.4058669215">
        <ele>20.4</ele>
        <time>2012-02-13T19:06:04Z</time>
      </trkpt>
      <trkpt lat="59.9917766419" lon="23.4057940828">
        <ele>20.4</ele>
        <time>2012-02-13T19:06:10Z</time>
      </trkpt>
      <trkpt lat="59.9919290248" lon="23.405632396">
        <ele>20.4</ele>
        <time>2012-02-13T19:06:16Z</time>
      </trkpt>
      <trkpt lat="59.9920519035" lon="23.4053531111">
        <ele>20.4</ele>
        <time>2012-02-13T19:06:23Z</time>
      </trkpt>
      <trkpt lat="59.9921928032" lon="23.4050998939">
        <ele>20.4</ele>
        <time>2012-02-13T19:06:30Z</time>
      </trkpt>
      <trkpt lat="59.9923342058" lon="23.4049852295">
        <ele>20.4</ele>
        <time>2012-02-13T19:06:35Z</time>
      </trkpt>
      <trkpt lat="59.9924220482" lon="23.404915995">
        <ele>20.4</ele>
        <time>2012-02-13T19:06:37Z</time>
      </trkpt>
      <trkpt lat="59.9924640415" lon="23.4048364507">
        <ele>20.4</ele>
        <time>2012-02-13T19:06:39Z</time>
      </trkpt>
      <trkpt lat="59.9925418255" lon="23.4046044397">
        <ele>20.4</ele>
        <time>2012-02-13T19:06:44Z</time>
      </trkpt>
      <trkpt lat="59.9926952143" lon="23.4044041962">
        <ele>20.4</ele>
        <time>2012-02-13T19:06:50Z</time>
      </trkpt>
      <trkpt lat="59.9928688034" lon="23.4042427608">
        <ele>20.4</ele>
        <time>2012-02-13T19:06:56Z</time>
      </trkpt>
      <trkpt lat="59.9929371159" lon="23.4039451195">
        <ele>20.4</ele>
        <time>2012-02-13T19:07:01Z</time>
      </trkpt>
      <trkpt lat="59.9929915983" lon="23.4035407766">
        <ele>20.4</ele>
        <time>2012-02-13T19:07:06Z</time>
      </trkpt>
      <trkpt lat="59.9930595755" lon="23.4031707996">
        <ele>20.4</ele>
        <time>2012-02-13T19:07:08Z</time>
      </trkpt>
      <trkpt lat="59.9930869005" lon="23.4029562229">
        <ele>20.4</ele>
        <time>2012-02-13T19:07:10Z</time>
      </trkpt>
      <trkpt lat="59.993099138" lon="23.4027062747">
        <ele>20.4</ele>
        <time>2012-02-13T19:07:13Z</time>
      </trkpt>
      <trkpt lat="59.9930986351" lon="23.4024275765">
        <ele>20.4</ele>
        <time>2012-02-13T19:07:18Z</time>
      </trkpt>
      <trkpt lat="59.9930834639" lon="23.4022228905">
        <ele>20.4</ele>
        <time>2012-02-13T19:07:22Z</time>
      </trkpt>
      <trkpt lat="59.9930418897" lon="23.4018655701">
        <ele>20.4</ele>
        <time>2012-02-13T19:07:30Z</time>
      </trkpt>
      <trkpt lat="59.9929936099" lon="23.4015242591">
        <ele>20.4</ele>
        <time>2012-02-13T19:07:37Z</time>
      </trkpt>
      <trkpt lat="59.9929881617" lon="23.4012273722">
        <ele>20.4</ele>
        <time>2012-02-13T19:07:43Z</time>
      </trkpt>
      <trkpt lat="59.9929862338" lon="23.4008973768">
        <ele>20.4</ele>
        <time>2012-02-13T19:07:49Z</time>
      </trkpt>
      <trkpt lat="59.9929255489" lon="23.4007024977">
        <ele>20.4</ele>
        <time>2012-02-13T19:07:53Z</time>
      </trkpt>
      <trkpt lat="59.9927957133" lon="23.4006101291">
        <ele>20.4</ele>
        <time>2012-02-13T19:07:58Z</time>
      </trkpt>
      <trkpt lat="59.9926714935" lon="23.4005662918">
        <ele>20.4</ele>
        <time>2012-02-13T19:08:02Z</time>
      </trkpt>
      <trkpt lat="59.9926384688" lon="23.4005740031">
        <ele>20.4</ele>
        <time>2012-02-13T19:08:03Z</time>
      </trkpt>
      <trkpt lat="59.9925425799" lon="23.4005502824">
        <ele>20.4</ele>
        <time>2012-02-13T19:08:06Z</time>
      </trkpt>
      <trkpt lat="59.9923796357" lon="23.4005707342">
        <ele>20.4</ele>
        <time>2012-02-13T19:08:11Z</time>
      </trkpt>
      <trkpt lat="59.9923422525" lon="23.4006289046">
        <ele>20.4</ele>
        <time>2012-02-13T19:08:15Z</time>
      </trkpt>
      <trkpt lat="59.9923368881" lon="23.400627312">
        <ele>20.4</ele>
        <time>2012-02-13T19:08:19Z</time>
      </trkpt>
      <trkpt lat="59.9923388159" lon="23.4006097938">
        <ele>20.4</ele>
        <time>2012-02-13T19:08:24Z</time>
      </trkpt>
      <trkpt lat="59.9923454376" lon="23.4006186787">
        <ele>20.4</ele>
        <time>2012-02-13T19:08:30Z</time>
      </trkpt>
      <trkpt lat="59.9923427554" lon="23.4006216961">
        <ele>20.4</ele>
        <time>2012-02-13T19:08:35Z</time>
      </trkpt>
      <trkpt lat="59.9923388159" lon="23.4006295751">
        <ele>20.4</ele>
        <time>2012-02-13T19:08:38Z</time>
      </trkpt>
      <trkpt lat="59.992324399" lon="23.4006921879">
        <ele>20.4</ele>
        <time>2012-02-13T19:08:43Z</time>
      </trkpt>
      <trkpt lat="59.9923113233" lon="23.4009037471">
        <ele>20.4</ele>
        <time>2012-02-13T19:08:48Z</time>
      </trkpt>
      <trkpt lat="59.9923349602" lon="23.4010380251">
        <ele>20.4</ele>
        <time>2012-02-13T19:08:51Z</time>
      </trkpt>
      <trkpt lat="59.9923298473" lon="23.401399285">
        <ele>20.4</ele>
        <time>2012-02-13T19:08:57Z</time>
      </trkpt>
      <trkpt lat="59.9923145922" lon="23.4014665078">
        <ele>20.4</ele>
        <time>2012-02-13T19:08:58Z</time>
      </trkpt>
      <trkpt lat="59.9921917135" lon="23.4016551844">
        <ele>20.4</ele>
        <time>2012-02-13T19:09:02Z</time>
      </trkpt>
      <trkpt lat="59.9920931424" lon="23.4016944117">
        <ele>20.4</ele>
        <time>2012-02-13T19:09:06Z</time>
      </trkpt>
      <trkpt lat="59.991995158" lon="23.4016867842">
        <ele>20.4</ele>
        <time>2012-02-13T19:09:08Z</time>
      </trkpt>
      <trkpt lat="59.9918794039" lon="23.4017092477">
        <ele>20.4</ele>
        <time>2012-02-13T19:09:11Z</time>
      </trkpt>
      <trkpt lat="59.9918252569" lon="23.401714193">
        <ele>20.4</ele>
        <time>2012-02-13T19:09:12Z</time>
      </trkpt>
      <trkpt lat="59.991702462" lon="23.4017265144">
        <ele>20.4</ele>
        <time>2012-02-13T19:09:15Z</time>
      </trkpt>
      <trkpt lat="59.9915749733" lon="23.4017337228">
        <ele>20.4</ele>
        <time>2012-02-13T19:09:19Z</time>
      </trkpt>
      <trkpt lat="59.9914887236" lon="23.4017811644">
        <ele>20</ele>
        <time>2012-02-13T19:09:21Z</time>
      </trkpt>
      <trkpt lat="59.991228298" lon="23.4019943999">
        <ele>19</ele>
        <time>2012-02-13T19:09:31Z</time>
      </trkpt>
      <trkpt lat="59.9910655215" lon="23.4021787179">
        <ele>18</ele>
        <time>2012-02-13T19:09:37Z</time>
      </trkpt>
      <trkpt lat="59.9907960434" lon="23.4024366289">
        <ele>16.8</ele>
        <time>2012-02-13T19:09:48Z</time>
      </trkpt>
      <trkpt lat="59.9906635255" lon="23.4025197774">
        <ele>16.6</ele>
        <time>2012-02-13T19:09:53Z</time>
      </trkpt>
      <trkpt lat="59.9906372902" lon="23.4025649558">
        <ele>16.6</ele>
        <time>2012-02-13T19:09:54Z</time>
      </trkpt>
      <trkpt lat="59.9905851548" lon="23.4026164207">
        <ele>16.6</ele>
        <time>2012-02-13T19:09:57Z</time>
      </trkpt>
      <trkpt lat="59.9905636133" lon="23.4026249702">
        <ele>16.4</ele>
        <time>2012-02-13T19:10:04Z</time>
      </trkpt>
      <trkpt lat="59.9905331032" lon="23.4026299994">
        <ele>16.4</ele>
        <time>2012-02-13T19:10:08Z</time>
      </trkpt>
      <trkpt lat="59.990482225" lon="23.4026988986">
        <ele>16.8</ele>
        <time>2012-02-13T19:10:12Z</time>
      </trkpt>
      <trkpt lat="59.9904497033" lon="23.4028387925">
        <ele>17.2</ele>
        <time>2012-02-13T19:10:16Z</time>
      </trkpt>
      <trkpt lat="59.9904465181" lon="23.4030282235">
        <ele>17.8</ele>
        <time>2012-02-13T19:10:21Z</time>
      </trkpt>
      <trkpt lat="59.9904499547" lon="23.4030751621">
        <ele>17.8</ele>
        <time>2012-02-13T19:10:22Z</time>
      </trkpt>
      <trkpt lat="59.9904246414" lon="23.4033732225">
        <ele>18.2</ele>
        <time>2012-02-13T19:10:31Z</time>
      </trkpt>
      <trkpt lat="59.9904314307" lon="23.4034485757">
        <ele>18.2</ele>
        <time>2012-02-13T19:10:33Z</time>
      </trkpt>
      <trkpt lat="59.9904639525" lon="23.4036329775">
        <ele>18.8</ele>
        <time>2012-02-13T19:10:36Z</time>
      </trkpt>
      <trkpt lat="59.990512819" lon="23.4038751306">
        <ele>19.2</ele>
        <time>2012-02-13T19:10:40Z</time>
      </trkpt>
      <trkpt lat="59.9905251404" lon="23.4039282719">
        <ele>19.4</ele>
        <time>2012-02-13T19:10:41Z</time>
      </trkpt>
      <trkpt lat="59.9906242144" lon="23.4040192993">
        <ele>19.8</ele>
        <time>2012-02-13T19:10:46Z</time>
      </trkpt>
      <trkpt lat="59.9907348555" lon="23.4040258372">
        <ele>20</ele>
        <time>2012-02-13T19:10:49Z</time>
      </trkpt>
      <trkpt lat="59.9909042537" lon="23.4041819082">
        <ele>20</ele>
        <time>2012-02-13T19:10:53Z</time>
      </trkpt>
      <trkpt lat="59.9909528687" lon="23.4045005042">
        <ele>20.2</ele>
        <time>2012-02-13T19:10:56Z</time>
      </trkpt>
      <trkpt lat="59.9909613344" lon="23.404616845">
        <ele>20.2</ele>
        <time>2012-02-13T19:10:57Z</time>
      </trkpt>
      <trkpt lat="59.9909927666" lon="23.4050384545">
        <ele>20.2</ele>
        <time>2012-02-13T19:11:01Z</time>
      </trkpt>
      <trkpt lat="59.9909881565" lon="23.4053343356">
        <ele>19.6</ele>
        <time>2012-02-13T19:11:05Z</time>
      </trkpt>
      <trkpt lat="59.9909652739" lon="23.4055655922">
        <ele>19.2</ele>
        <time>2012-02-13T19:11:09Z</time>
      </trkpt>
      <trkpt lat="59.9910019867" lon="23.4058797458">
        <ele>18.8</ele>
        <time>2012-02-13T19:11:14Z</time>
      </trkpt>
      <trkpt lat="59.9910241149" lon="23.4059395926">
        <ele>18.8</ele>
        <time>2012-02-13T19:11:15Z</time>
      </trkpt>
      <trkpt lat="59.9911349236" lon="23.4062343002">
        <ele>17.8</ele>
        <time>2012-02-13T19:11:20Z</time>
      </trkpt>
      <trkpt lat="59.9912170662" lon="23.4066143355">
        <ele>17</ele>
        <time>2012-02-13T19:11:26Z</time>
      </trkpt>
      <trkpt lat="59.9912788408" lon="23.4069589993">
        <ele>16.8</ele>
        <time>2012-02-13T19:11:30Z</time>
      </trkpt>
      <trkpt lat="59.9913413698" lon="23.4073080216">
        <ele>16.6</ele>
        <time>2012-02-13T19:11:34Z</time>
      </trkpt>
      <trkpt lat="59.9914213331" lon="23.4076976961">
        <ele>16</ele>
        <time>2012-02-13T19:11:37Z</time>
      </trkpt>
      <trkpt lat="59.9914589678" lon="23.4079527573">
        <ele>15.6</ele>
        <time>2012-02-13T19:11:40Z</time>
      </trkpt>
      <trkpt lat="59.9914510889" lon="23.4084499716">
        <ele>15.2</ele>
        <time>2012-02-13T19:11:44Z</time>
      </trkpt>
      <trkpt lat="59.9913605643" lon="23.4086782946">
        <ele>14.4</ele>
        <time>2012-02-13T19:11:46Z</time>
      </trkpt>
      <trkpt lat="59.9912451456" lon="23.4087162646">
        <ele>13.8</ele>
        <time>2012-02-13T19:11:49Z</time>
      </trkpt>
      <trkpt lat="59.9912130429" lon="23.4086930467">
        <ele>13.6</ele>
        <time>2012-02-13T19:11:50Z</time>
      </trkpt>
      <trkpt lat="59.9911582253" lon="23.4086496285">
        <ele>13.2</ele>
        <time>2012-02-13T19:11:52Z</time>
      </trkpt>
      <trkpt lat="59.9909993883" lon="23.4084491335">
        <ele>12</ele>
        <time>2012-02-13T19:11:58Z</time>
      </trkpt>
      <trkpt lat="59.9909320816" lon="23.4083290208">
        <ele>11.4</ele>
        <time>2012-02-13T19:12:01Z</time>
      </trkpt>
      <trkpt lat="59.9908423115" lon="23.4081814156">
        <ele>10.2</ele>
        <time>2012-02-13T19:12:06Z</time>
      </trkpt>
      <trkpt lat="59.9907282338" lon="23.4079919846">
        <ele>8.4</ele>
        <time>2012-02-13T19:12:11Z</time>
      </trkpt>
      <trkpt lat="59.9906429061" lon="23.4077806769">
        <ele>7.2</ele>
        <time>2012-02-13T19:12:16Z</time>
      </trkpt>
      <trkpt lat="59.9906291597" lon="23.4077334868">
        <ele>6.8</ele>
        <time>2012-02-13T19:12:17Z</time>
      </trkpt>
      <trkpt lat="59.9905844842" lon="23.4076635818">
        <ele>5.2</ele>
        <time>2012-02-13T19:12:22Z</time>
      </trkpt>
      <trkpt lat="59.9905807124" lon="23.4076577983">
        <ele>3.8</ele>
        <time>2012-02-13T19:12:33Z</time>
      </trkpt>
    </trkseg>
  </trk>
</gpx>